<?xml version="1.0" encoding="UTF-8" standalone="no" ?>
<gpx xmlns="http://www.topografix.com/GPX/1/1" xmlns:xsi="http://www.w3.org/2001/XMLSchema-instance" xsi:schemaLocation="http://www.topografix.com/GPX/1/1 http://www.topografix.com/GPX/1/1/gpx.xsd" version="1.1" creator="VisuGPX - https://www.visugpx.com">
  <metadata>
    <name>Montauroux, boucle par les bords de Siagne</name>
    <desc><![CDATA[Une boucle rafraîchissante sur les bords de Siagne.]]></desc>
  </metadata>
  <trk>
    <name><![CDATA[ACTIVE LOG 007]]></name>
    <trkseg>
      <trkpt lat="43.6122" lon="6.8186">
        <ele>152.0257568</ele>
        <time>2011-06-16T07:27:23Z</time>
      </trkpt>
      <trkpt lat="43.61221" lon="6.8186">
        <ele>152.9869385</ele>
        <time>2011-06-16T07:27:25Z</time>
      </trkpt>
      <trkpt lat="43.61221" lon="6.8186">
        <ele>155.8709717</ele>
        <time>2011-06-16T07:27:32Z</time>
      </trkpt>
      <trkpt lat="43.61222" lon="6.81859">
        <ele>158.7547607</ele>
        <time>2011-06-16T07:27:42Z</time>
      </trkpt>
      <trkpt lat="43.61222" lon="6.81859">
        <ele>162.1195068</ele>
        <time>2011-06-16T07:27:52Z</time>
      </trkpt>
      <trkpt lat="43.61222" lon="6.81859">
        <ele>165.003418</ele>
        <time>2011-06-16T07:28:06Z</time>
      </trkpt>
      <trkpt lat="43.61222" lon="6.8186">
        <ele>168.368042</ele>
        <time>2011-06-16T07:28:36Z</time>
      </trkpt>
      <trkpt lat="43.61207" lon="6.81809">
        <ele>169.8100586</ele>
        <time>2011-06-16T07:31:23Z</time>
      </trkpt>
      <trkpt lat="43.61193" lon="6.81738">
        <ele>173.1746826</ele>
        <time>2011-06-16T07:31:42Z</time>
      </trkpt>
      <trkpt lat="43.6118" lon="6.81662">
        <ele>175.5778809</ele>
        <time>2011-06-16T07:32:03Z</time>
      </trkpt>
      <trkpt lat="43.61151" lon="6.8158">
        <ele>177.5006104</ele>
        <time>2011-06-16T07:32:24Z</time>
      </trkpt>
      <trkpt lat="43.61128" lon="6.8154">
        <ele>178.4619141</ele>
        <time>2011-06-16T07:32:36Z</time>
      </trkpt>
      <trkpt lat="43.61078" lon="6.81494">
        <ele>179.9038086</ele>
        <time>2011-06-16T07:32:55Z</time>
      </trkpt>
      <trkpt lat="43.61014" lon="6.81462">
        <ele>181.826416</ele>
        <time>2011-06-16T07:33:15Z</time>
      </trkpt>
      <trkpt lat="43.60963" lon="6.81419">
        <ele>185.1911621</ele>
        <time>2011-06-16T07:33:33Z</time>
      </trkpt>
      <trkpt lat="43.6093" lon="6.81369">
        <ele>186.1524658</ele>
        <time>2011-06-16T07:33:49Z</time>
      </trkpt>
      <trkpt lat="43.60909" lon="6.81309">
        <ele>188.0750732</ele>
        <time>2011-06-16T07:34:04Z</time>
      </trkpt>
      <trkpt lat="43.60891" lon="6.8125">
        <ele>189.036377</ele>
        <time>2011-06-16T07:34:19Z</time>
      </trkpt>
      <trkpt lat="43.60855" lon="6.81164">
        <ele>189.9976807</ele>
        <time>2011-06-16T07:34:40Z</time>
      </trkpt>
      <trkpt lat="43.60818" lon="6.8112">
        <ele>192.401123</ele>
        <time>2011-06-16T07:34:54Z</time>
      </trkpt>
      <trkpt lat="43.60769" lon="6.8109">
        <ele>194.8043213</ele>
        <time>2011-06-16T07:35:15Z</time>
      </trkpt>
      <trkpt lat="43.60728" lon="6.8108">
        <ele>195.765625</ele>
        <time>2011-06-16T07:35:31Z</time>
      </trkpt>
      <trkpt lat="43.60692" lon="6.81067">
        <ele>197.2075195</ele>
        <time>2011-06-16T07:35:46Z</time>
      </trkpt>
      <trkpt lat="43.60636" lon="6.81034">
        <ele>199.130127</ele>
        <time>2011-06-16T07:36:07Z</time>
      </trkpt>
      <trkpt lat="43.60593" lon="6.80977">
        <ele>200.5722656</ele>
        <time>2011-06-16T07:36:26Z</time>
      </trkpt>
      <trkpt lat="43.60569" lon="6.80933">
        <ele>202.0142822</ele>
        <time>2011-06-16T07:36:40Z</time>
      </trkpt>
      <trkpt lat="43.60533" lon="6.8088">
        <ele>202.9754639</ele>
        <time>2011-06-16T07:36:56Z</time>
      </trkpt>
      <trkpt lat="43.60474" lon="6.80835">
        <ele>206.3400879</ele>
        <time>2011-06-16T07:37:17Z</time>
      </trkpt>
      <trkpt lat="43.60407" lon="6.80816">
        <ele>208.2628174</ele>
        <time>2011-06-16T07:37:39Z</time>
      </trkpt>
      <trkpt lat="43.60357" lon="6.80798">
        <ele>209.2241211</ele>
        <time>2011-06-16T07:37:57Z</time>
      </trkpt>
      <trkpt lat="43.60297" lon="6.80751">
        <ele>212.1080322</ele>
        <time>2011-06-16T07:38:18Z</time>
      </trkpt>
      <trkpt lat="43.60234" lon="6.807">
        <ele>214.0306396</ele>
        <time>2011-06-16T07:38:40Z</time>
      </trkpt>
      <trkpt lat="43.60231" lon="6.80697">
        <ele>213.5500488</ele>
        <time>2011-06-16T07:38:41Z</time>
      </trkpt>
      <trkpt lat="43.60186" lon="6.8066">
        <ele>215.9532471</ele>
        <time>2011-06-16T07:38:58Z</time>
      </trkpt>
      <trkpt lat="43.60131" lon="6.80613">
        <ele>217.8759766</ele>
        <time>2011-06-16T07:39:19Z</time>
      </trkpt>
      <trkpt lat="43.6009" lon="6.80569">
        <ele>219.3179932</ele>
        <time>2011-06-16T07:39:37Z</time>
      </trkpt>
      <trkpt lat="43.60057" lon="6.80521">
        <ele>221.7211914</ele>
        <time>2011-06-16T07:39:53Z</time>
      </trkpt>
      <trkpt lat="43.60017" lon="6.80457">
        <ele>223.163208</ele>
        <time>2011-06-16T07:40:11Z</time>
      </trkpt>
      <trkpt lat="43.59976" lon="6.80396">
        <ele>224.6052246</ele>
        <time>2011-06-16T07:40:28Z</time>
      </trkpt>
      <trkpt lat="43.59953" lon="6.80358">
        <ele>225.5665283</ele>
        <time>2011-06-16T07:40:40Z</time>
      </trkpt>
      <trkpt lat="43.59926" lon="6.80316">
        <ele>227.4891357</ele>
        <time>2011-06-16T07:40:54Z</time>
      </trkpt>
      <trkpt lat="43.59902" lon="6.80277">
        <ele>228.4504395</ele>
        <time>2011-06-16T07:41:07Z</time>
      </trkpt>
      <trkpt lat="43.59879" lon="6.80239">
        <ele>228.9311523</ele>
        <time>2011-06-16T07:41:17Z</time>
      </trkpt>
      <trkpt lat="43.59871" lon="6.80229">
        <ele>229.4117432</ele>
        <time>2011-06-16T07:41:20Z</time>
      </trkpt>
      <trkpt lat="43.59843" lon="6.80185">
        <ele>230.8537598</ele>
        <time>2011-06-16T07:41:33Z</time>
      </trkpt>
      <trkpt lat="43.5981" lon="6.80141">
        <ele>233.2570801</ele>
        <time>2011-06-16T07:41:48Z</time>
      </trkpt>
      <trkpt lat="43.59798" lon="6.8014">
        <ele>233.2570801</ele>
        <time>2011-06-16T07:41:49Z</time>
      </trkpt>
      <trkpt lat="43.59823" lon="6.80136">
        <ele>234.2183838</ele>
        <time>2011-06-16T07:41:54Z</time>
      </trkpt>
      <trkpt lat="43.59844" lon="6.80155">
        <ele>237.5828857</ele>
        <time>2011-06-16T07:42:05Z</time>
      </trkpt>
      <trkpt lat="43.59858" lon="6.80159">
        <ele>240.9476318</ele>
        <time>2011-06-16T07:42:15Z</time>
      </trkpt>
      <trkpt lat="43.59858" lon="6.80159">
        <ele>240.467041</ele>
        <time>2011-06-16T07:42:27Z</time>
      </trkpt>
      <trkpt lat="43.59853" lon="6.80139">
        <ele>240.467041</ele>
        <time>2011-06-16T07:42:34Z</time>
      </trkpt>
      <trkpt lat="43.59784" lon="6.80023">
        <ele>240.9476318</ele>
        <time>2011-06-16T07:42:56Z</time>
      </trkpt>
      <trkpt lat="43.59751" lon="6.79944">
        <ele>244.3122559</ele>
        <time>2011-06-16T07:43:13Z</time>
      </trkpt>
      <trkpt lat="43.59747" lon="6.79935">
        <ele>245.2734375</ele>
        <time>2011-06-16T07:43:15Z</time>
      </trkpt>
      <trkpt lat="43.59739" lon="6.79913">
        <ele>245.2734375</ele>
        <time>2011-06-16T07:43:20Z</time>
      </trkpt>
      <trkpt lat="43.59751" lon="6.79904">
        <ele>245.7541504</ele>
        <time>2011-06-16T07:43:25Z</time>
      </trkpt>
      <trkpt lat="43.5977" lon="6.79941">
        <ele>248.6381836</ele>
        <time>2011-06-16T07:43:39Z</time>
      </trkpt>
      <trkpt lat="43.59769" lon="6.79943">
        <ele>248.6381836</ele>
        <time>2011-06-16T07:43:46Z</time>
      </trkpt>
      <trkpt lat="43.5977" lon="6.79948">
        <ele>248.1575928</ele>
        <time>2011-06-16T07:43:48Z</time>
      </trkpt>
      <trkpt lat="43.598" lon="6.79976">
        <ele>249.1187744</ele>
        <time>2011-06-16T07:44:03Z</time>
      </trkpt>
      <trkpt lat="43.59805" lon="6.79974">
        <ele>250.560791</ele>
        <time>2011-06-16T07:44:06Z</time>
      </trkpt>
      <trkpt lat="43.59816" lon="6.7997">
        <ele>253.925415</ele>
        <time>2011-06-16T07:44:14Z</time>
      </trkpt>
      <trkpt lat="43.59819" lon="6.79968">
        <ele>255.3673096</ele>
        <time>2011-06-16T07:44:17Z</time>
      </trkpt>
      <trkpt lat="43.5983" lon="6.79965">
        <ele>257.770752</ele>
        <time>2011-06-16T07:44:26Z</time>
      </trkpt>
      <trkpt lat="43.59842" lon="6.79956">
        <ele>260.654541</ele>
        <time>2011-06-16T07:44:36Z</time>
      </trkpt>
      <trkpt lat="43.59847" lon="6.79955">
        <ele>261.6159668</ele>
        <time>2011-06-16T07:44:40Z</time>
      </trkpt>
      <trkpt lat="43.59863" lon="6.79947">
        <ele>264.9805908</ele>
        <time>2011-06-16T07:44:53Z</time>
      </trkpt>
      <trkpt lat="43.59867" lon="6.79946">
        <ele>265.9418945</ele>
        <time>2011-06-16T07:44:56Z</time>
      </trkpt>
      <trkpt lat="43.59881" lon="6.79934">
        <ele>269.3065186</ele>
        <time>2011-06-16T07:45:10Z</time>
      </trkpt>
      <trkpt lat="43.59882" lon="6.79929">
        <ele>270.7484131</ele>
        <time>2011-06-16T07:45:18Z</time>
      </trkpt>
      <trkpt lat="43.59887" lon="6.79911">
        <ele>273.6324463</ele>
        <time>2011-06-16T07:45:36Z</time>
      </trkpt>
      <trkpt lat="43.5989" lon="6.79899">
        <ele>276.9970703</ele>
        <time>2011-06-16T07:45:52Z</time>
      </trkpt>
      <trkpt lat="43.59893" lon="6.79881">
        <ele>279.8808594</ele>
        <time>2011-06-16T07:46:11Z</time>
      </trkpt>
      <trkpt lat="43.59893" lon="6.79862">
        <ele>282.7650146</ele>
        <time>2011-06-16T07:46:29Z</time>
      </trkpt>
      <trkpt lat="43.59898" lon="6.79841">
        <ele>285.1682129</ele>
        <time>2011-06-16T07:46:44Z</time>
      </trkpt>
      <trkpt lat="43.59899" lon="6.79825">
        <ele>287.0908203</ele>
        <time>2011-06-16T07:46:59Z</time>
      </trkpt>
      <trkpt lat="43.59901" lon="6.79809">
        <ele>289.9748535</ele>
        <time>2011-06-16T07:47:16Z</time>
      </trkpt>
      <trkpt lat="43.59906" lon="6.79792">
        <ele>292.8587646</ele>
        <time>2011-06-16T07:47:34Z</time>
      </trkpt>
      <trkpt lat="43.59904" lon="6.79773">
        <ele>295.2619629</ele>
        <time>2011-06-16T07:47:49Z</time>
      </trkpt>
      <trkpt lat="43.59905" lon="6.7977">
        <ele>295.7426758</ele>
        <time>2011-06-16T07:47:52Z</time>
      </trkpt>
      <trkpt lat="43.59908" lon="6.79767">
        <ele>296.2235107</ele>
        <time>2011-06-16T07:48:09Z</time>
      </trkpt>
      <trkpt lat="43.59909" lon="6.79769">
        <ele>297.1846924</ele>
        <time>2011-06-16T07:50:39Z</time>
      </trkpt>
      <trkpt lat="43.59909" lon="6.79769">
        <ele>297.1846924</ele>
        <time>2011-06-16T07:50:40Z</time>
      </trkpt>
      <trkpt lat="43.59922" lon="6.79784">
        <ele>298.626709</ele>
        <time>2011-06-16T07:50:51Z</time>
      </trkpt>
      <trkpt lat="43.59932" lon="6.79774">
        <ele>301.5106201</ele>
        <time>2011-06-16T07:51:06Z</time>
      </trkpt>
      <trkpt lat="43.59936" lon="6.79751">
        <ele>304.3946533</ele>
        <time>2011-06-16T07:51:24Z</time>
      </trkpt>
      <trkpt lat="43.59936" lon="6.79732">
        <ele>306.3172607</ele>
        <time>2011-06-16T07:51:41Z</time>
      </trkpt>
      <trkpt lat="43.59942" lon="6.79722">
        <ele>307.7592773</ele>
        <time>2011-06-16T07:51:48Z</time>
      </trkpt>
      <trkpt lat="43.59957" lon="6.79715">
        <ele>310.1624756</ele>
        <time>2011-06-16T07:52:00Z</time>
      </trkpt>
      <trkpt lat="43.59978" lon="6.79709">
        <ele>313.5272217</ele>
        <time>2011-06-16T07:52:16Z</time>
      </trkpt>
      <trkpt lat="43.59992" lon="6.79703">
        <ele>315.9304199</ele>
        <time>2011-06-16T07:52:28Z</time>
      </trkpt>
      <trkpt lat="43.6" lon="6.79702">
        <ele>316.8917236</ele>
        <time>2011-06-16T07:52:34Z</time>
      </trkpt>
      <trkpt lat="43.60016" lon="6.79714">
        <ele>320.7370605</ele>
        <time>2011-06-16T07:52:49Z</time>
      </trkpt>
      <trkpt lat="43.60017" lon="6.79715">
        <ele>320.7370605</ele>
        <time>2011-06-16T07:52:50Z</time>
      </trkpt>
      <trkpt lat="43.60028" lon="6.79731">
        <ele>323.6209717</ele>
        <time>2011-06-16T07:53:09Z</time>
      </trkpt>
      <trkpt lat="43.60039" lon="6.79744">
        <ele>326.9855957</ele>
        <time>2011-06-16T07:53:29Z</time>
      </trkpt>
      <trkpt lat="43.60052" lon="6.79748">
        <ele>329.388916</ele>
        <time>2011-06-16T07:53:48Z</time>
      </trkpt>
      <trkpt lat="43.60056" lon="6.79748">
        <ele>329.8695068</ele>
        <time>2011-06-16T07:53:52Z</time>
      </trkpt>
      <trkpt lat="43.60071" lon="6.79746">
        <ele>332.75354</ele>
        <time>2011-06-16T07:54:11Z</time>
      </trkpt>
      <trkpt lat="43.60085" lon="6.79748">
        <ele>335.6373291</ele>
        <time>2011-06-16T07:54:26Z</time>
      </trkpt>
      <trkpt lat="43.60101" lon="6.79753">
        <ele>338.5214844</ele>
        <time>2011-06-16T07:54:47Z</time>
      </trkpt>
      <trkpt lat="43.60114" lon="6.79757">
        <ele>340.4440918</ele>
        <time>2011-06-16T07:55:02Z</time>
      </trkpt>
      <trkpt lat="43.60128" lon="6.79762">
        <ele>343.8085938</ele>
        <time>2011-06-16T07:55:21Z</time>
      </trkpt>
      <trkpt lat="43.60129" lon="6.79761">
        <ele>343.8085938</ele>
        <time>2011-06-16T07:55:22Z</time>
      </trkpt>
      <trkpt lat="43.60148" lon="6.79764">
        <ele>346.692627</ele>
        <time>2011-06-16T07:55:42Z</time>
      </trkpt>
      <trkpt lat="43.60158" lon="6.79767">
        <ele>347.1732178</ele>
        <time>2011-06-16T07:55:51Z</time>
      </trkpt>
      <trkpt lat="43.60163" lon="6.79776">
        <ele>350.057251</ele>
        <time>2011-06-16T07:55:59Z</time>
      </trkpt>
      <trkpt lat="43.60164" lon="6.79777">
        <ele>350.057251</ele>
        <time>2011-06-16T07:56:00Z</time>
      </trkpt>
      <trkpt lat="43.60165" lon="6.79791">
        <ele>350.5378418</ele>
        <time>2011-06-16T07:56:11Z</time>
      </trkpt>
      <trkpt lat="43.60163" lon="6.79794">
        <ele>351.4991455</ele>
        <time>2011-06-16T07:56:19Z</time>
      </trkpt>
      <trkpt lat="43.6015" lon="6.79853">
        <ele>351.4991455</ele>
        <time>2011-06-16T07:56:39Z</time>
      </trkpt>
      <trkpt lat="43.6019" lon="6.79927">
        <ele>350.5378418</ele>
        <time>2011-06-16T07:57:00Z</time>
      </trkpt>
      <trkpt lat="43.60251" lon="6.79975">
        <ele>351.9798584</ele>
        <time>2011-06-16T07:57:20Z</time>
      </trkpt>
      <trkpt lat="43.60256" lon="6.79976">
        <ele>353.421875</ele>
        <time>2011-06-16T07:57:22Z</time>
      </trkpt>
      <trkpt lat="43.60281" lon="6.79978">
        <ele>355.8251953</ele>
        <time>2011-06-16T07:57:33Z</time>
      </trkpt>
      <trkpt lat="43.6032" lon="6.79974">
        <ele>357.7478027</ele>
        <time>2011-06-16T07:57:52Z</time>
      </trkpt>
      <trkpt lat="43.60366" lon="6.79982">
        <ele>356.3057861</ele>
        <time>2011-06-16T07:58:08Z</time>
      </trkpt>
      <trkpt lat="43.60404" lon="6.79956">
        <ele>353.9025879</ele>
        <time>2011-06-16T07:58:21Z</time>
      </trkpt>
      <trkpt lat="43.6042" lon="6.79942">
        <ele>352.9411621</ele>
        <time>2011-06-16T07:58:25Z</time>
      </trkpt>
      <trkpt lat="43.60428" lon="6.79935">
        <ele>351.9798584</ele>
        <time>2011-06-16T07:58:27Z</time>
      </trkpt>
      <trkpt lat="43.60436" lon="6.79928">
        <ele>352.4605713</ele>
        <time>2011-06-16T07:58:29Z</time>
      </trkpt>
      <trkpt lat="43.60445" lon="6.7992">
        <ele>350.5378418</ele>
        <time>2011-06-16T07:58:31Z</time>
      </trkpt>
      <trkpt lat="43.60472" lon="6.79921">
        <ele>350.5378418</ele>
        <time>2011-06-16T07:58:40Z</time>
      </trkpt>
      <trkpt lat="43.6048" lon="6.79929">
        <ele>350.5378418</ele>
        <time>2011-06-16T07:58:44Z</time>
      </trkpt>
      <trkpt lat="43.60496" lon="6.79943">
        <ele>353.421875</ele>
        <time>2011-06-16T07:58:52Z</time>
      </trkpt>
      <trkpt lat="43.60541" lon="6.79966">
        <ele>354.8637695</ele>
        <time>2011-06-16T07:59:12Z</time>
      </trkpt>
      <trkpt lat="43.60575" lon="6.79956">
        <ele>356.3057861</ele>
        <time>2011-06-16T07:59:27Z</time>
      </trkpt>
      <trkpt lat="43.60618" lon="6.79958">
        <ele>357.7478027</ele>
        <time>2011-06-16T07:59:44Z</time>
      </trkpt>
      <trkpt lat="43.60665" lon="6.79971">
        <ele>359.6704102</ele>
        <time>2011-06-16T08:00:02Z</time>
      </trkpt>
      <trkpt lat="43.60682" lon="6.79976">
        <ele>358.2283936</ele>
        <time>2011-06-16T08:00:07Z</time>
      </trkpt>
      <trkpt lat="43.60694" lon="6.79979">
        <ele>356.786377</ele>
        <time>2011-06-16T08:00:10Z</time>
      </trkpt>
      <trkpt lat="43.60704" lon="6.79982">
        <ele>356.3057861</ele>
        <time>2011-06-16T08:00:12Z</time>
      </trkpt>
      <trkpt lat="43.60714" lon="6.79985">
        <ele>354.8637695</ele>
        <time>2011-06-16T08:00:14Z</time>
      </trkpt>
      <trkpt lat="43.60722" lon="6.7999">
        <ele>354.3831787</ele>
        <time>2011-06-16T08:00:16Z</time>
      </trkpt>
      <trkpt lat="43.60731" lon="6.79995">
        <ele>353.421875</ele>
        <time>2011-06-16T08:00:18Z</time>
      </trkpt>
      <trkpt lat="43.60746" lon="6.80004">
        <ele>351.9798584</ele>
        <time>2011-06-16T08:00:21Z</time>
      </trkpt>
      <trkpt lat="43.60758" lon="6.80012">
        <ele>349.5765381</ele>
        <time>2011-06-16T08:00:23Z</time>
      </trkpt>
      <trkpt lat="43.60776" lon="6.80022">
        <ele>347.1732178</ele>
        <time>2011-06-16T08:00:26Z</time>
      </trkpt>
      <trkpt lat="43.60788" lon="6.80032">
        <ele>346.692627</ele>
        <time>2011-06-16T08:00:28Z</time>
      </trkpt>
      <trkpt lat="43.60831" lon="6.8008">
        <ele>346.2120361</ele>
        <time>2011-06-16T08:00:40Z</time>
      </trkpt>
      <trkpt lat="43.60853" lon="6.80095">
        <ele>343.3278809</ele>
        <time>2011-06-16T08:00:44Z</time>
      </trkpt>
      <trkpt lat="43.60859" lon="6.801">
        <ele>341.8859863</ele>
        <time>2011-06-16T08:00:45Z</time>
      </trkpt>
      <trkpt lat="43.60872" lon="6.80109">
        <ele>339.9633789</ele>
        <time>2011-06-16T08:00:47Z</time>
      </trkpt>
      <trkpt lat="43.60891" lon="6.80122">
        <ele>339.0020752</ele>
        <time>2011-06-16T08:00:50Z</time>
      </trkpt>
      <trkpt lat="43.6091" lon="6.80125">
        <ele>337.0794678</ele>
        <time>2011-06-16T08:00:53Z</time>
      </trkpt>
      <trkpt lat="43.60919" lon="6.80129">
        <ele>340.4440918</ele>
        <time>2011-06-16T08:00:55Z</time>
      </trkpt>
      <trkpt lat="43.60925" lon="6.80131">
        <ele>340.4440918</ele>
        <time>2011-06-16T08:00:56Z</time>
      </trkpt>
      <trkpt lat="43.60934" lon="6.80135">
        <ele>340.4440918</ele>
        <time>2011-06-16T08:00:58Z</time>
      </trkpt>
      <trkpt lat="43.60954" lon="6.80125">
        <ele>340.9246826</ele>
        <time>2011-06-16T08:01:03Z</time>
      </trkpt>
      <trkpt lat="43.60976" lon="6.80099">
        <ele>344.7700195</ele>
        <time>2011-06-16T08:01:12Z</time>
      </trkpt>
      <trkpt lat="43.60982" lon="6.80091">
        <ele>346.692627</ele>
        <time>2011-06-16T08:01:18Z</time>
      </trkpt>
      <trkpt lat="43.60986" lon="6.80083">
        <ele>346.692627</ele>
        <time>2011-06-16T08:01:21Z</time>
      </trkpt>
      <trkpt lat="43.60994" lon="6.80053">
        <ele>350.057251</ele>
        <time>2011-06-16T08:01:35Z</time>
      </trkpt>
      <trkpt lat="43.61005" lon="6.80017">
        <ele>351.9798584</ele>
        <time>2011-06-16T08:01:51Z</time>
      </trkpt>
      <trkpt lat="43.61012" lon="6.79997">
        <ele>353.421875</ele>
        <time>2011-06-16T08:02:01Z</time>
      </trkpt>
      <trkpt lat="43.61013" lon="6.79992">
        <ele>355.8251953</ele>
        <time>2011-06-16T08:02:08Z</time>
      </trkpt>
      <trkpt lat="43.61016" lon="6.79982">
        <ele>358.2283936</ele>
        <time>2011-06-16T08:02:22Z</time>
      </trkpt>
      <trkpt lat="43.61016" lon="6.79982">
        <ele>361.1124268</ele>
        <time>2011-06-16T08:02:36Z</time>
      </trkpt>
      <trkpt lat="43.61016" lon="6.79982">
        <ele>364.4769287</ele>
        <time>2011-06-16T08:02:51Z</time>
      </trkpt>
      <trkpt lat="43.61016" lon="6.79982">
        <ele>364.4769287</ele>
        <time>2011-06-16T08:02:52Z</time>
      </trkpt>
      <trkpt lat="43.61016" lon="6.79982">
        <ele>363.5157471</ele>
        <time>2011-06-16T08:02:59Z</time>
      </trkpt>
      <trkpt lat="43.61032" lon="6.79936">
        <ele>363.9963379</ele>
        <time>2011-06-16T08:03:05Z</time>
      </trkpt>
      <trkpt lat="43.61066" lon="6.79951">
        <ele>364.9576416</ele>
        <time>2011-06-16T08:03:18Z</time>
      </trkpt>
      <trkpt lat="43.61076" lon="6.79959">
        <ele>363.9963379</ele>
        <time>2011-06-16T08:03:22Z</time>
      </trkpt>
      <trkpt lat="43.61104" lon="6.79983">
        <ele>364.4769287</ele>
        <time>2011-06-16T08:03:34Z</time>
      </trkpt>
      <trkpt lat="43.61145" lon="6.79993">
        <ele>364.4769287</ele>
        <time>2011-06-16T08:03:46Z</time>
      </trkpt>
      <trkpt lat="43.61158" lon="6.7999">
        <ele>364.9576416</ele>
        <time>2011-06-16T08:03:50Z</time>
      </trkpt>
      <trkpt lat="43.61196" lon="6.79973">
        <ele>367.3609619</ele>
        <time>2011-06-16T08:04:02Z</time>
      </trkpt>
      <trkpt lat="43.61211" lon="6.79961">
        <ele>366.880249</ele>
        <time>2011-06-16T08:04:08Z</time>
      </trkpt>
      <trkpt lat="43.61231" lon="6.79944">
        <ele>364.9576416</ele>
        <time>2011-06-16T08:04:17Z</time>
      </trkpt>
      <trkpt lat="43.61246" lon="6.79919">
        <ele>367.3609619</ele>
        <time>2011-06-16T08:04:25Z</time>
      </trkpt>
      <trkpt lat="43.61254" lon="6.79886">
        <ele>368.8029785</ele>
        <time>2011-06-16T08:04:35Z</time>
      </trkpt>
      <trkpt lat="43.61255" lon="6.79884">
        <ele>369.2836914</ele>
        <time>2011-06-16T08:04:36Z</time>
      </trkpt>
      <trkpt lat="43.61255" lon="6.79861">
        <ele>372.1674805</ele>
        <time>2011-06-16T08:04:47Z</time>
      </trkpt>
      <trkpt lat="43.61253" lon="6.79846">
        <ele>371.2062988</ele>
        <time>2011-06-16T08:04:56Z</time>
      </trkpt>
      <trkpt lat="43.61252" lon="6.79804">
        <ele>369.2836914</ele>
        <time>2011-06-16T08:04:59Z</time>
      </trkpt>
      <trkpt lat="43.61254" lon="6.79783">
        <ele>368.3222656</ele>
        <time>2011-06-16T08:05:02Z</time>
      </trkpt>
      <trkpt lat="43.61275" lon="6.79727">
        <ele>363.9963379</ele>
        <time>2011-06-16T08:05:10Z</time>
      </trkpt>
      <trkpt lat="43.61282" lon="6.79713">
        <ele>362.5543213</ele>
        <time>2011-06-16T08:05:12Z</time>
      </trkpt>
      <trkpt lat="43.61293" lon="6.79692">
        <ele>361.5931396</ele>
        <time>2011-06-16T08:05:17Z</time>
      </trkpt>
      <trkpt lat="43.61307" lon="6.79675">
        <ele>359.6704102</ele>
        <time>2011-06-16T08:05:21Z</time>
      </trkpt>
      <trkpt lat="43.6133" lon="6.79659">
        <ele>358.2283936</ele>
        <time>2011-06-16T08:05:26Z</time>
      </trkpt>
      <trkpt lat="43.6133" lon="6.79659">
        <ele>357.2670898</ele>
        <time>2011-06-16T08:05:28Z</time>
      </trkpt>
      <trkpt lat="43.61358" lon="6.7961">
        <ele>359.6704102</ele>
        <time>2011-06-16T08:05:35Z</time>
      </trkpt>
      <trkpt lat="43.61413" lon="6.79463">
        <ele>360.6317139</ele>
        <time>2011-06-16T08:05:59Z</time>
      </trkpt>
      <trkpt lat="43.61436" lon="6.79391">
        <ele>362.5543213</ele>
        <time>2011-06-16T08:06:12Z</time>
      </trkpt>
      <trkpt lat="43.61449" lon="6.79284">
        <ele>358.7089844</ele>
        <time>2011-06-16T08:06:27Z</time>
      </trkpt>
      <trkpt lat="43.61452" lon="6.79248">
        <ele>357.2670898</ele>
        <time>2011-06-16T08:06:31Z</time>
      </trkpt>
      <trkpt lat="43.6146" lon="6.79231">
        <ele>355.8251953</ele>
        <time>2011-06-16T08:06:33Z</time>
      </trkpt>
      <trkpt lat="43.61469" lon="6.79215">
        <ele>355.8251953</ele>
        <time>2011-06-16T08:06:35Z</time>
      </trkpt>
      <trkpt lat="43.6148" lon="6.792">
        <ele>353.9025879</ele>
        <time>2011-06-16T08:06:37Z</time>
      </trkpt>
      <trkpt lat="43.61504" lon="6.79167">
        <ele>352.9411621</ele>
        <time>2011-06-16T08:06:43Z</time>
      </trkpt>
      <trkpt lat="43.61509" lon="6.79147">
        <ele>351.4991455</ele>
        <time>2011-06-16T08:06:46Z</time>
      </trkpt>
      <trkpt lat="43.61525" lon="6.79043">
        <ele>354.8637695</ele>
        <time>2011-06-16T08:07:02Z</time>
      </trkpt>
      <trkpt lat="43.61535" lon="6.78993">
        <ele>353.421875</ele>
        <time>2011-06-16T08:07:12Z</time>
      </trkpt>
      <trkpt lat="43.61547" lon="6.7895">
        <ele>351.4991455</ele>
        <time>2011-06-16T08:07:19Z</time>
      </trkpt>
      <trkpt lat="43.61549" lon="6.78941">
        <ele>351.4991455</ele>
        <time>2011-06-16T08:07:21Z</time>
      </trkpt>
      <trkpt lat="43.6159" lon="6.78972">
        <ele>351.4991455</ele>
        <time>2011-06-16T08:07:34Z</time>
      </trkpt>
      <trkpt lat="43.61614" lon="6.79">
        <ele>353.421875</ele>
        <time>2011-06-16T08:07:44Z</time>
      </trkpt>
      <trkpt lat="43.61628" lon="6.79014">
        <ele>354.8637695</ele>
        <time>2011-06-16T08:07:52Z</time>
      </trkpt>
      <trkpt lat="43.61646" lon="6.79026">
        <ele>356.3057861</ele>
        <time>2011-06-16T08:08:00Z</time>
      </trkpt>
      <trkpt lat="43.61681" lon="6.79081">
        <ele>360.151123</ele>
        <time>2011-06-16T08:08:20Z</time>
      </trkpt>
      <trkpt lat="43.61722" lon="6.79127">
        <ele>362.5543213</ele>
        <time>2011-06-16T08:08:41Z</time>
      </trkpt>
      <trkpt lat="43.6173" lon="6.79142">
        <ele>362.5543213</ele>
        <time>2011-06-16T08:08:45Z</time>
      </trkpt>
      <trkpt lat="43.61729" lon="6.79152">
        <ele>363.0350342</ele>
        <time>2011-06-16T08:08:48Z</time>
      </trkpt>
      <trkpt lat="43.61758" lon="6.79185">
        <ele>365.9189453</ele>
        <time>2011-06-16T08:09:01Z</time>
      </trkpt>
      <trkpt lat="43.61826" lon="6.79237">
        <ele>367.3609619</ele>
        <time>2011-06-16T08:09:27Z</time>
      </trkpt>
      <trkpt lat="43.61855" lon="6.79248">
        <ele>367.8415527</ele>
        <time>2011-06-16T08:09:35Z</time>
      </trkpt>
      <trkpt lat="43.6188" lon="6.79256">
        <ele>368.3222656</ele>
        <time>2011-06-16T08:09:42Z</time>
      </trkpt>
      <trkpt lat="43.61884" lon="6.79258">
        <ele>367.8415527</ele>
        <time>2011-06-16T08:09:43Z</time>
      </trkpt>
      <trkpt lat="43.61897" lon="6.79265">
        <ele>367.8415527</ele>
        <time>2011-06-16T08:09:47Z</time>
      </trkpt>
      <trkpt lat="43.61908" lon="6.79276">
        <ele>367.8415527</ele>
        <time>2011-06-16T08:09:50Z</time>
      </trkpt>
      <trkpt lat="43.61929" lon="6.79297">
        <ele>367.3609619</ele>
        <time>2011-06-16T08:09:56Z</time>
      </trkpt>
      <trkpt lat="43.61968" lon="6.79342">
        <ele>368.3222656</ele>
        <time>2011-06-16T08:10:09Z</time>
      </trkpt>
      <trkpt lat="43.6201" lon="6.79358">
        <ele>368.3222656</ele>
        <time>2011-06-16T08:10:22Z</time>
      </trkpt>
      <trkpt lat="43.62016" lon="6.79327">
        <ele>366.3995361</ele>
        <time>2011-06-16T08:10:29Z</time>
      </trkpt>
      <trkpt lat="43.62033" lon="6.79316">
        <ele>365.9189453</ele>
        <time>2011-06-16T08:10:34Z</time>
      </trkpt>
      <trkpt lat="43.62045" lon="6.7932">
        <ele>366.3995361</ele>
        <time>2011-06-16T08:10:37Z</time>
      </trkpt>
      <trkpt lat="43.6207" lon="6.79331">
        <ele>366.880249</ele>
        <time>2011-06-16T08:10:45Z</time>
      </trkpt>
      <trkpt lat="43.62117" lon="6.79327">
        <ele>367.8415527</ele>
        <time>2011-06-16T08:10:59Z</time>
      </trkpt>
      <trkpt lat="43.62144" lon="6.79317">
        <ele>369.7642822</ele>
        <time>2011-06-16T08:11:10Z</time>
      </trkpt>
      <trkpt lat="43.62149" lon="6.79315">
        <ele>370.244873</ele>
        <time>2011-06-16T08:11:13Z</time>
      </trkpt>
      <trkpt lat="43.62159" lon="6.7931">
        <ele>370.244873</ele>
        <time>2011-06-16T08:11:21Z</time>
      </trkpt>
      <trkpt lat="43.62167" lon="6.79307">
        <ele>369.2836914</ele>
        <time>2011-06-16T08:11:26Z</time>
      </trkpt>
      <trkpt lat="43.62182" lon="6.793">
        <ele>369.2836914</ele>
        <time>2011-06-16T08:11:34Z</time>
      </trkpt>
      <trkpt lat="43.62196" lon="6.79294">
        <ele>370.7255859</ele>
        <time>2011-06-16T08:11:41Z</time>
      </trkpt>
      <trkpt lat="43.62205" lon="6.79289">
        <ele>371.6868896</ele>
        <time>2011-06-16T08:11:45Z</time>
      </trkpt>
      <trkpt lat="43.62211" lon="6.79286">
        <ele>372.1674805</ele>
        <time>2011-06-16T08:11:47Z</time>
      </trkpt>
      <trkpt lat="43.62236" lon="6.79259">
        <ele>372.1674805</ele>
        <time>2011-06-16T08:11:57Z</time>
      </trkpt>
      <trkpt lat="43.62252" lon="6.79236">
        <ele>373.1289063</ele>
        <time>2011-06-16T08:12:06Z</time>
      </trkpt>
      <trkpt lat="43.62256" lon="6.79231">
        <ele>372.6481934</ele>
        <time>2011-06-16T08:12:08Z</time>
      </trkpt>
      <trkpt lat="43.62276" lon="6.79214">
        <ele>372.6481934</ele>
        <time>2011-06-16T08:12:14Z</time>
      </trkpt>
      <trkpt lat="43.62299" lon="6.79172">
        <ele>374.5708008</ele>
        <time>2011-06-16T08:12:25Z</time>
      </trkpt>
      <trkpt lat="43.62302" lon="6.79164">
        <ele>375.0515137</ele>
        <time>2011-06-16T08:12:27Z</time>
      </trkpt>
      <trkpt lat="43.62304" lon="6.79159">
        <ele>374.5708008</ele>
        <time>2011-06-16T08:12:29Z</time>
      </trkpt>
      <trkpt lat="43.62315" lon="6.79132">
        <ele>375.0515137</ele>
        <time>2011-06-16T08:12:38Z</time>
      </trkpt>
      <trkpt lat="43.62324" lon="6.79101">
        <ele>375.5321045</ele>
        <time>2011-06-16T08:12:41Z</time>
      </trkpt>
      <trkpt lat="43.62367" lon="6.7909">
        <ele>376.4935303</ele>
        <time>2011-06-16T08:12:49Z</time>
      </trkpt>
      <trkpt lat="43.62383" lon="6.79091">
        <ele>376.0128174</ele>
        <time>2011-06-16T08:12:53Z</time>
      </trkpt>
      <trkpt lat="43.62398" lon="6.79098">
        <ele>375.5321045</ele>
        <time>2011-06-16T08:12:57Z</time>
      </trkpt>
      <trkpt lat="43.62407" lon="6.79103">
        <ele>374.5708008</ele>
        <time>2011-06-16T08:12:59Z</time>
      </trkpt>
      <trkpt lat="43.6242" lon="6.79109">
        <ele>372.6481934</ele>
        <time>2011-06-16T08:13:02Z</time>
      </trkpt>
      <trkpt lat="43.62424" lon="6.79111">
        <ele>372.6481934</ele>
        <time>2011-06-16T08:13:03Z</time>
      </trkpt>
      <trkpt lat="43.62447" lon="6.79119">
        <ele>369.2836914</ele>
        <time>2011-06-16T08:13:08Z</time>
      </trkpt>
      <trkpt lat="43.62451" lon="6.7912">
        <ele>369.2836914</ele>
        <time>2011-06-16T08:13:09Z</time>
      </trkpt>
      <trkpt lat="43.62457" lon="6.79121">
        <ele>367.3609619</ele>
        <time>2011-06-16T08:13:10Z</time>
      </trkpt>
      <trkpt lat="43.62475" lon="6.79122">
        <ele>365.4383545</ele>
        <time>2011-06-16T08:13:13Z</time>
      </trkpt>
      <trkpt lat="43.62513" lon="6.79116">
        <ele>363.5157471</ele>
        <time>2011-06-16T08:13:19Z</time>
      </trkpt>
      <trkpt lat="43.6253" lon="6.79108">
        <ele>363.0350342</ele>
        <time>2011-06-16T08:13:22Z</time>
      </trkpt>
      <trkpt lat="43.62546" lon="6.79101">
        <ele>363.0350342</ele>
        <time>2011-06-16T08:13:25Z</time>
      </trkpt>
      <trkpt lat="43.62567" lon="6.79089">
        <ele>361.1124268</ele>
        <time>2011-06-16T08:13:29Z</time>
      </trkpt>
      <trkpt lat="43.62586" lon="6.79068">
        <ele>359.1896973</ele>
        <time>2011-06-16T08:13:33Z</time>
      </trkpt>
      <trkpt lat="43.62601" lon="6.79041">
        <ele>357.7478027</ele>
        <time>2011-06-16T08:13:37Z</time>
      </trkpt>
      <trkpt lat="43.62613" lon="6.79026">
        <ele>357.2670898</ele>
        <time>2011-06-16T08:13:40Z</time>
      </trkpt>
      <trkpt lat="43.62628" lon="6.7898">
        <ele>355.3444824</ele>
        <time>2011-06-16T08:13:48Z</time>
      </trkpt>
      <trkpt lat="43.62629" lon="6.78959">
        <ele>354.8637695</ele>
        <time>2011-06-16T08:13:52Z</time>
      </trkpt>
      <trkpt lat="43.62656" lon="6.7889">
        <ele>352.9411621</ele>
        <time>2011-06-16T08:14:02Z</time>
      </trkpt>
      <trkpt lat="43.6266" lon="6.78882">
        <ele>352.9411621</ele>
        <time>2011-06-16T08:14:03Z</time>
      </trkpt>
      <trkpt lat="43.62665" lon="6.78868">
        <ele>352.9411621</ele>
        <time>2011-06-16T08:14:05Z</time>
      </trkpt>
      <trkpt lat="43.62668" lon="6.78841">
        <ele>355.3444824</ele>
        <time>2011-06-16T08:14:14Z</time>
      </trkpt>
      <trkpt lat="43.62668" lon="6.78841">
        <ele>354.8637695</ele>
        <time>2011-06-16T08:14:15Z</time>
      </trkpt>
      <trkpt lat="43.62694" lon="6.78837">
        <ele>353.9025879</ele>
        <time>2011-06-16T08:14:21Z</time>
      </trkpt>
      <trkpt lat="43.62699" lon="6.78837">
        <ele>352.9411621</ele>
        <time>2011-06-16T08:14:23Z</time>
      </trkpt>
      <trkpt lat="43.62703" lon="6.78838">
        <ele>352.4605713</ele>
        <time>2011-06-16T08:14:25Z</time>
      </trkpt>
      <trkpt lat="43.62697" lon="6.78808">
        <ele>351.0184326</ele>
        <time>2011-06-16T08:14:29Z</time>
      </trkpt>
      <trkpt lat="43.62697" lon="6.78792">
        <ele>350.5378418</ele>
        <time>2011-06-16T08:14:32Z</time>
      </trkpt>
      <trkpt lat="43.62698" lon="6.7876">
        <ele>348.6152344</ele>
        <time>2011-06-16T08:14:37Z</time>
      </trkpt>
      <trkpt lat="43.62698" lon="6.78734">
        <ele>346.692627</ele>
        <time>2011-06-16T08:14:42Z</time>
      </trkpt>
      <trkpt lat="43.62697" lon="6.78713">
        <ele>346.2120361</ele>
        <time>2011-06-16T08:14:46Z</time>
      </trkpt>
      <trkpt lat="43.62693" lon="6.78681">
        <ele>344.2894287</ele>
        <time>2011-06-16T08:14:52Z</time>
      </trkpt>
      <trkpt lat="43.62676" lon="6.78645">
        <ele>342.3666992</ele>
        <time>2011-06-16T08:14:59Z</time>
      </trkpt>
      <trkpt lat="43.62654" lon="6.78623">
        <ele>343.3278809</ele>
        <time>2011-06-16T08:15:06Z</time>
      </trkpt>
      <trkpt lat="43.62646" lon="6.78577">
        <ele>339.9633789</ele>
        <time>2011-06-16T08:15:13Z</time>
      </trkpt>
      <trkpt lat="43.62643" lon="6.78565">
        <ele>339.9633789</ele>
        <time>2011-06-16T08:15:14Z</time>
      </trkpt>
      <trkpt lat="43.62639" lon="6.78553">
        <ele>339.0020752</ele>
        <time>2011-06-16T08:15:16Z</time>
      </trkpt>
      <trkpt lat="43.62634" lon="6.78532">
        <ele>339.0020752</ele>
        <time>2011-06-16T08:15:20Z</time>
      </trkpt>
      <trkpt lat="43.6263" lon="6.78498">
        <ele>338.5214844</ele>
        <time>2011-06-16T08:15:25Z</time>
      </trkpt>
      <trkpt lat="43.62627" lon="6.78478">
        <ele>336.1181641</ele>
        <time>2011-06-16T08:15:28Z</time>
      </trkpt>
      <trkpt lat="43.62608" lon="6.7842">
        <ele>333.2341309</ele>
        <time>2011-06-16T08:15:37Z</time>
      </trkpt>
      <trkpt lat="43.62607" lon="6.78415">
        <ele>333.2341309</ele>
        <time>2011-06-16T08:15:38Z</time>
      </trkpt>
      <trkpt lat="43.6261" lon="6.78409">
        <ele>332.2728271</ele>
        <time>2011-06-16T08:15:44Z</time>
      </trkpt>
      <trkpt lat="43.62643" lon="6.78427">
        <ele>331.7921143</ele>
        <time>2011-06-16T08:15:56Z</time>
      </trkpt>
      <trkpt lat="43.62654" lon="6.78433">
        <ele>332.75354</ele>
        <time>2011-06-16T08:16:25Z</time>
      </trkpt>
      <trkpt lat="43.62654" lon="6.78433">
        <ele>332.75354</ele>
        <time>2011-06-16T08:16:26Z</time>
      </trkpt>
      <trkpt lat="43.62662" lon="6.78405">
        <ele>334.1954346</ele>
        <time>2011-06-16T08:16:30Z</time>
      </trkpt>
      <trkpt lat="43.62662" lon="6.78405">
        <ele>335.1567383</ele>
        <time>2011-06-16T08:16:36Z</time>
      </trkpt>
      <trkpt lat="43.62668" lon="6.78401">
        <ele>336.598877</ele>
        <time>2011-06-16T08:16:41Z</time>
      </trkpt>
      <trkpt lat="43.62673" lon="6.78395">
        <ele>336.1181641</ele>
        <time>2011-06-16T08:16:50Z</time>
      </trkpt>
      <trkpt lat="43.62675" lon="6.78388">
        <ele>337.5600586</ele>
        <time>2011-06-16T08:16:54Z</time>
      </trkpt>
      <trkpt lat="43.62677" lon="6.78383">
        <ele>337.0794678</ele>
        <time>2011-06-16T08:16:56Z</time>
      </trkpt>
      <trkpt lat="43.62688" lon="6.7837">
        <ele>338.5214844</ele>
        <time>2011-06-16T08:16:59Z</time>
      </trkpt>
      <trkpt lat="43.6269" lon="6.78369">
        <ele>338.5214844</ele>
        <time>2011-06-16T08:17:00Z</time>
      </trkpt>
      <trkpt lat="43.62693" lon="6.78366">
        <ele>340.9246826</ele>
        <time>2011-06-16T08:17:07Z</time>
      </trkpt>
      <trkpt lat="43.62711" lon="6.78375">
        <ele>342.84729</ele>
        <time>2011-06-16T08:17:12Z</time>
      </trkpt>
      <trkpt lat="43.62716" lon="6.78353">
        <ele>346.2120361</ele>
        <time>2011-06-16T08:17:23Z</time>
      </trkpt>
      <trkpt lat="43.62736" lon="6.78325">
        <ele>348.6152344</ele>
        <time>2011-06-16T08:17:35Z</time>
      </trkpt>
      <trkpt lat="43.6276" lon="6.78305">
        <ele>348.6152344</ele>
        <time>2011-06-16T08:17:46Z</time>
      </trkpt>
      <trkpt lat="43.6277" lon="6.78277">
        <ele>348.6152344</ele>
        <time>2011-06-16T08:17:51Z</time>
      </trkpt>
      <trkpt lat="43.62788" lon="6.78266">
        <ele>347.6539307</ele>
        <time>2011-06-16T08:17:57Z</time>
      </trkpt>
      <trkpt lat="43.62806" lon="6.78253">
        <ele>346.2120361</ele>
        <time>2011-06-16T08:18:03Z</time>
      </trkpt>
      <trkpt lat="43.62837" lon="6.78226">
        <ele>347.6539307</ele>
        <time>2011-06-16T08:18:10Z</time>
      </trkpt>
      <trkpt lat="43.62848" lon="6.78214">
        <ele>348.6152344</ele>
        <time>2011-06-16T08:18:14Z</time>
      </trkpt>
      <trkpt lat="43.62872" lon="6.78197">
        <ele>350.057251</ele>
        <time>2011-06-16T08:18:20Z</time>
      </trkpt>
      <trkpt lat="43.6288" lon="6.78187">
        <ele>351.0184326</ele>
        <time>2011-06-16T08:18:24Z</time>
      </trkpt>
      <trkpt lat="43.62882" lon="6.78185">
        <ele>351.9798584</ele>
        <time>2011-06-16T08:18:26Z</time>
      </trkpt>
      <trkpt lat="43.62889" lon="6.78175">
        <ele>353.421875</ele>
        <time>2011-06-16T08:18:32Z</time>
      </trkpt>
      <trkpt lat="43.62909" lon="6.78144">
        <ele>355.8251953</ele>
        <time>2011-06-16T08:18:44Z</time>
      </trkpt>
      <trkpt lat="43.62918" lon="6.7813">
        <ele>357.7478027</ele>
        <time>2011-06-16T08:18:53Z</time>
      </trkpt>
      <trkpt lat="43.6292" lon="6.78126">
        <ele>358.7089844</ele>
        <time>2011-06-16T08:18:55Z</time>
      </trkpt>
      <trkpt lat="43.62926" lon="6.78117">
        <ele>358.2283936</ele>
        <time>2011-06-16T08:18:59Z</time>
      </trkpt>
      <trkpt lat="43.62932" lon="6.78107">
        <ele>357.7478027</ele>
        <time>2011-06-16T08:19:01Z</time>
      </trkpt>
      <trkpt lat="43.62967" lon="6.78053">
        <ele>358.2283936</ele>
        <time>2011-06-16T08:19:14Z</time>
      </trkpt>
      <trkpt lat="43.62974" lon="6.78047">
        <ele>358.7089844</ele>
        <time>2011-06-16T08:19:17Z</time>
      </trkpt>
      <trkpt lat="43.63009" lon="6.78046">
        <ele>360.6317139</ele>
        <time>2011-06-16T08:19:27Z</time>
      </trkpt>
      <trkpt lat="43.63033" lon="6.78016">
        <ele>362.0737305</ele>
        <time>2011-06-16T08:19:38Z</time>
      </trkpt>
      <trkpt lat="43.63058" lon="6.78017">
        <ele>362.5543213</ele>
        <time>2011-06-16T08:19:48Z</time>
      </trkpt>
      <trkpt lat="43.63067" lon="6.78003">
        <ele>363.9963379</ele>
        <time>2011-06-16T08:19:54Z</time>
      </trkpt>
      <trkpt lat="43.63086" lon="6.77991">
        <ele>364.9576416</ele>
        <time>2011-06-16T08:20:02Z</time>
      </trkpt>
      <trkpt lat="43.63137" lon="6.78039">
        <ele>366.880249</ele>
        <time>2011-06-16T08:20:22Z</time>
      </trkpt>
      <trkpt lat="43.63174" lon="6.78073">
        <ele>369.7642822</ele>
        <time>2011-06-16T08:20:37Z</time>
      </trkpt>
      <trkpt lat="43.6318" lon="6.78081">
        <ele>370.7255859</ele>
        <time>2011-06-16T08:20:40Z</time>
      </trkpt>
      <trkpt lat="43.6321" lon="6.78118">
        <ele>373.1289063</ele>
        <time>2011-06-16T08:20:53Z</time>
      </trkpt>
      <trkpt lat="43.63237" lon="6.7815">
        <ele>376.0128174</ele>
        <time>2011-06-16T08:21:06Z</time>
      </trkpt>
      <trkpt lat="43.63266" lon="6.78181">
        <ele>377.454834</ele>
        <time>2011-06-16T08:21:18Z</time>
      </trkpt>
      <trkpt lat="43.63304" lon="6.78208">
        <ele>377.454834</ele>
        <time>2011-06-16T08:21:32Z</time>
      </trkpt>
      <trkpt lat="43.63351" lon="6.7821">
        <ele>380.3387451</ele>
        <time>2011-06-16T08:21:44Z</time>
      </trkpt>
      <trkpt lat="43.63379" lon="6.78208">
        <ele>380.819458</ele>
        <time>2011-06-16T08:21:52Z</time>
      </trkpt>
      <trkpt lat="43.63387" lon="6.78209">
        <ele>380.3387451</ele>
        <time>2011-06-16T08:21:55Z</time>
      </trkpt>
      <trkpt lat="43.63408" lon="6.78211">
        <ele>378.8968506</ele>
        <time>2011-06-16T08:22:00Z</time>
      </trkpt>
      <trkpt lat="43.63458" lon="6.78217">
        <ele>377.454834</ele>
        <time>2011-06-16T08:22:10Z</time>
      </trkpt>
      <trkpt lat="43.63463" lon="6.78218">
        <ele>376.9742432</ele>
        <time>2011-06-16T08:22:11Z</time>
      </trkpt>
      <trkpt lat="43.6349" lon="6.78216">
        <ele>375.5321045</ele>
        <time>2011-06-16T08:22:16Z</time>
      </trkpt>
      <trkpt lat="43.63501" lon="6.78215">
        <ele>375.5321045</ele>
        <time>2011-06-16T08:22:18Z</time>
      </trkpt>
      <trkpt lat="43.63526" lon="6.78225">
        <ele>374.0900879</ele>
        <time>2011-06-16T08:22:24Z</time>
      </trkpt>
      <trkpt lat="43.63599" lon="6.78253">
        <ele>372.6481934</ele>
        <time>2011-06-16T08:22:38Z</time>
      </trkpt>
      <trkpt lat="43.6362" lon="6.78264">
        <ele>372.6481934</ele>
        <time>2011-06-16T08:22:42Z</time>
      </trkpt>
      <trkpt lat="43.63636" lon="6.78273">
        <ele>374.5708008</ele>
        <time>2011-06-16T08:22:46Z</time>
      </trkpt>
      <trkpt lat="43.63659" lon="6.7829">
        <ele>374.0900879</ele>
        <time>2011-06-16T08:22:52Z</time>
      </trkpt>
      <trkpt lat="43.637" lon="6.78317">
        <ele>373.1289063</ele>
        <time>2011-06-16T08:23:01Z</time>
      </trkpt>
      <trkpt lat="43.63708" lon="6.78322">
        <ele>372.6481934</ele>
        <time>2011-06-16T08:23:03Z</time>
      </trkpt>
      <trkpt lat="43.63726" lon="6.78333">
        <ele>372.1674805</ele>
        <time>2011-06-16T08:23:07Z</time>
      </trkpt>
      <trkpt lat="43.63738" lon="6.78343">
        <ele>371.6868896</ele>
        <time>2011-06-16T08:23:10Z</time>
      </trkpt>
      <trkpt lat="43.63761" lon="6.78354">
        <ele>370.244873</ele>
        <time>2011-06-16T08:23:15Z</time>
      </trkpt>
      <trkpt lat="43.63769" lon="6.78361">
        <ele>370.7255859</ele>
        <time>2011-06-16T08:23:17Z</time>
      </trkpt>
      <trkpt lat="43.63801" lon="6.78355">
        <ele>368.8029785</ele>
        <time>2011-06-16T08:23:24Z</time>
      </trkpt>
      <trkpt lat="43.63823" lon="6.78346">
        <ele>367.3609619</ele>
        <time>2011-06-16T08:23:29Z</time>
      </trkpt>
      <trkpt lat="43.63832" lon="6.78341">
        <ele>367.8415527</ele>
        <time>2011-06-16T08:23:31Z</time>
      </trkpt>
      <trkpt lat="43.63856" lon="6.78338">
        <ele>367.3609619</ele>
        <time>2011-06-16T08:23:36Z</time>
      </trkpt>
      <trkpt lat="43.63869" lon="6.78337">
        <ele>368.3222656</ele>
        <time>2011-06-16T08:23:39Z</time>
      </trkpt>
      <trkpt lat="43.63876" lon="6.78337">
        <ele>364.9576416</ele>
        <time>2011-06-16T08:23:41Z</time>
      </trkpt>
      <trkpt lat="43.6388" lon="6.78337">
        <ele>368.3222656</ele>
        <time>2011-06-16T08:23:42Z</time>
      </trkpt>
      <trkpt lat="43.63889" lon="6.78336">
        <ele>368.8029785</ele>
        <time>2011-06-16T08:23:44Z</time>
      </trkpt>
      <trkpt lat="43.63908" lon="6.78325">
        <ele>369.2836914</ele>
        <time>2011-06-16T08:23:49Z</time>
      </trkpt>
      <trkpt lat="43.63926" lon="6.78306">
        <ele>370.244873</ele>
        <time>2011-06-16T08:23:58Z</time>
      </trkpt>
      <trkpt lat="43.63926" lon="6.783">
        <ele>370.7255859</ele>
        <time>2011-06-16T08:24:12Z</time>
      </trkpt>
      <trkpt lat="43.63926" lon="6.783">
        <ele>370.244873</ele>
        <time>2011-06-16T08:24:18Z</time>
      </trkpt>
      <trkpt lat="43.63921" lon="6.78266">
        <ele>371.2062988</ele>
        <time>2011-06-16T08:24:30Z</time>
      </trkpt>
      <trkpt lat="43.63916" lon="6.78196">
        <ele>373.6094971</ele>
        <time>2011-06-16T08:24:47Z</time>
      </trkpt>
      <trkpt lat="43.63916" lon="6.78187">
        <ele>374.0900879</ele>
        <time>2011-06-16T08:24:50Z</time>
      </trkpt>
      <trkpt lat="43.63915" lon="6.78175">
        <ele>374.5708008</ele>
        <time>2011-06-16T08:25:02Z</time>
      </trkpt>
      <trkpt lat="43.63942" lon="6.78171">
        <ele>374.5708008</ele>
        <time>2011-06-16T08:25:19Z</time>
      </trkpt>
      <trkpt lat="43.63991" lon="6.7817">
        <ele>374.0900879</ele>
        <time>2011-06-16T08:25:34Z</time>
      </trkpt>
      <trkpt lat="43.6402" lon="6.7814">
        <ele>373.1289063</ele>
        <time>2011-06-16T08:25:43Z</time>
      </trkpt>
      <trkpt lat="43.64031" lon="6.78127">
        <ele>373.1289063</ele>
        <time>2011-06-16T08:25:46Z</time>
      </trkpt>
      <trkpt lat="43.64048" lon="6.78103">
        <ele>372.1674805</ele>
        <time>2011-06-16T08:25:51Z</time>
      </trkpt>
      <trkpt lat="43.64067" lon="6.78076">
        <ele>371.6868896</ele>
        <time>2011-06-16T08:25:56Z</time>
      </trkpt>
      <trkpt lat="43.64081" lon="6.78058">
        <ele>371.2062988</ele>
        <time>2011-06-16T08:26:00Z</time>
      </trkpt>
      <trkpt lat="43.64088" lon="6.78049">
        <ele>371.2062988</ele>
        <time>2011-06-16T08:26:02Z</time>
      </trkpt>
      <trkpt lat="43.64099" lon="6.78039">
        <ele>370.7255859</ele>
        <time>2011-06-16T08:26:05Z</time>
      </trkpt>
      <trkpt lat="43.6411" lon="6.78024">
        <ele>370.244873</ele>
        <time>2011-06-16T08:26:09Z</time>
      </trkpt>
      <trkpt lat="43.64119" lon="6.78014">
        <ele>369.7642822</ele>
        <time>2011-06-16T08:26:12Z</time>
      </trkpt>
      <trkpt lat="43.64168" lon="6.77985">
        <ele>368.8029785</ele>
        <time>2011-06-16T08:26:24Z</time>
      </trkpt>
      <trkpt lat="43.64176" lon="6.77982">
        <ele>369.2836914</ele>
        <time>2011-06-16T08:26:26Z</time>
      </trkpt>
      <trkpt lat="43.64188" lon="6.7796">
        <ele>368.8029785</ele>
        <time>2011-06-16T08:26:31Z</time>
      </trkpt>
      <trkpt lat="43.64191" lon="6.7795">
        <ele>368.8029785</ele>
        <time>2011-06-16T08:26:33Z</time>
      </trkpt>
      <trkpt lat="43.64196" lon="6.77928">
        <ele>369.7642822</ele>
        <time>2011-06-16T08:26:37Z</time>
      </trkpt>
      <trkpt lat="43.6422" lon="6.77885">
        <ele>369.2836914</ele>
        <time>2011-06-16T08:26:45Z</time>
      </trkpt>
      <trkpt lat="43.64243" lon="6.77855">
        <ele>369.2836914</ele>
        <time>2011-06-16T08:26:52Z</time>
      </trkpt>
      <trkpt lat="43.64255" lon="6.77844">
        <ele>369.2836914</ele>
        <time>2011-06-16T08:26:55Z</time>
      </trkpt>
      <trkpt lat="43.64277" lon="6.778">
        <ele>370.7255859</ele>
        <time>2011-06-16T08:27:05Z</time>
      </trkpt>
      <trkpt lat="43.64278" lon="6.77798">
        <ele>371.6868896</ele>
        <time>2011-06-16T08:27:06Z</time>
      </trkpt>
      <trkpt lat="43.64304" lon="6.77761">
        <ele>373.6094971</ele>
        <time>2011-06-16T08:27:20Z</time>
      </trkpt>
      <trkpt lat="43.64307" lon="6.77753">
        <ele>373.1289063</ele>
        <time>2011-06-16T08:27:23Z</time>
      </trkpt>
      <trkpt lat="43.64316" lon="6.77721">
        <ele>375.0515137</ele>
        <time>2011-06-16T08:27:35Z</time>
      </trkpt>
      <trkpt lat="43.64325" lon="6.77683">
        <ele>376.4935303</ele>
        <time>2011-06-16T08:27:49Z</time>
      </trkpt>
      <trkpt lat="43.64326" lon="6.77679">
        <ele>376.4935303</ele>
        <time>2011-06-16T08:27:52Z</time>
      </trkpt>
      <trkpt lat="43.6433" lon="6.77665">
        <ele>376.4935303</ele>
        <time>2011-06-16T08:27:58Z</time>
      </trkpt>
      <trkpt lat="43.64332" lon="6.77678">
        <ele>377.454834</ele>
        <time>2011-06-16T08:28:03Z</time>
      </trkpt>
      <trkpt lat="43.64349" lon="6.77764">
        <ele>375.5321045</ele>
        <time>2011-06-16T08:28:21Z</time>
      </trkpt>
      <trkpt lat="43.64361" lon="6.77801">
        <ele>376.0128174</ele>
        <time>2011-06-16T08:28:30Z</time>
      </trkpt>
      <trkpt lat="43.64362" lon="6.7782">
        <ele>375.5321045</ele>
        <time>2011-06-16T08:28:34Z</time>
      </trkpt>
      <trkpt lat="43.64362" lon="6.77843">
        <ele>375.5321045</ele>
        <time>2011-06-16T08:28:39Z</time>
      </trkpt>
      <trkpt lat="43.64354" lon="6.77897">
        <ele>376.4935303</ele>
        <time>2011-06-16T08:28:51Z</time>
      </trkpt>
      <trkpt lat="43.64354" lon="6.779">
        <ele>376.0128174</ele>
        <time>2011-06-16T08:28:53Z</time>
      </trkpt>
      <trkpt lat="43.64353" lon="6.77902">
        <ele>376.4935303</ele>
        <time>2011-06-16T08:28:55Z</time>
      </trkpt>
      <trkpt lat="43.64351" lon="6.77912">
        <ele>376.9742432</ele>
        <time>2011-06-16T08:31:32Z</time>
      </trkpt>
      <trkpt lat="43.64352" lon="6.7791">
        <ele>377.454834</ele>
        <time>2011-06-16T08:31:38Z</time>
      </trkpt>
      <trkpt lat="43.64351" lon="6.77912">
        <ele>377.9354248</ele>
        <time>2011-06-16T08:31:51Z</time>
      </trkpt>
      <trkpt lat="43.64363" lon="6.77956">
        <ele>378.8968506</ele>
        <time>2011-06-16T08:31:58Z</time>
      </trkpt>
      <trkpt lat="43.64385" lon="6.77966">
        <ele>379.8580322</ele>
        <time>2011-06-16T08:32:02Z</time>
      </trkpt>
      <trkpt lat="43.64385" lon="6.77966">
        <ele>380.819458</ele>
        <time>2011-06-16T08:32:06Z</time>
      </trkpt>
      <trkpt lat="43.64389" lon="6.77967">
        <ele>381.7806396</ele>
        <time>2011-06-16T08:32:10Z</time>
      </trkpt>
      <trkpt lat="43.64419" lon="6.7796">
        <ele>381.7806396</ele>
        <time>2011-06-16T08:32:13Z</time>
      </trkpt>
      <trkpt lat="43.64429" lon="6.7795">
        <ele>383.2226563</ele>
        <time>2011-06-16T08:32:22Z</time>
      </trkpt>
      <trkpt lat="43.64443" lon="6.77941">
        <ele>386.1066895</ele>
        <time>2011-06-16T08:32:34Z</time>
      </trkpt>
      <trkpt lat="43.64448" lon="6.7794">
        <ele>387.0679932</ele>
        <time>2011-06-16T08:32:38Z</time>
      </trkpt>
      <trkpt lat="43.64452" lon="6.77941">
        <ele>388.5100098</ele>
        <time>2011-06-16T08:32:43Z</time>
      </trkpt>
      <trkpt lat="43.64461" lon="6.77942">
        <ele>388.9906006</ele>
        <time>2011-06-16T08:32:47Z</time>
      </trkpt>
      <trkpt lat="43.64482" lon="6.77935">
        <ele>390.4326172</ele>
        <time>2011-06-16T08:32:55Z</time>
      </trkpt>
      <trkpt lat="43.64485" lon="6.77934">
        <ele>391.3937988</ele>
        <time>2011-06-16T08:32:57Z</time>
      </trkpt>
      <trkpt lat="43.64485" lon="6.77934">
        <ele>391.8745117</ele>
        <time>2011-06-16T08:32:59Z</time>
      </trkpt>
      <trkpt lat="43.64494" lon="6.77929">
        <ele>392.8359375</ele>
        <time>2011-06-16T08:33:03Z</time>
      </trkpt>
      <trkpt lat="43.64509" lon="6.7791">
        <ele>395.2391357</ele>
        <time>2011-06-16T08:33:13Z</time>
      </trkpt>
      <trkpt lat="43.64519" lon="6.77893">
        <ele>395.2391357</ele>
        <time>2011-06-16T08:33:20Z</time>
      </trkpt>
      <trkpt lat="43.64522" lon="6.77888">
        <ele>397.1617432</ele>
        <time>2011-06-16T08:33:25Z</time>
      </trkpt>
      <trkpt lat="43.64538" lon="6.7788">
        <ele>398.1231689</ele>
        <time>2011-06-16T08:33:35Z</time>
      </trkpt>
      <trkpt lat="43.64554" lon="6.77869">
        <ele>401.0070801</ele>
        <time>2011-06-16T08:33:45Z</time>
      </trkpt>
      <trkpt lat="43.64576" lon="6.7784">
        <ele>402.4490967</ele>
        <time>2011-06-16T08:33:57Z</time>
      </trkpt>
      <trkpt lat="43.64569" lon="6.77819">
        <ele>403.8911133</ele>
        <time>2011-06-16T08:34:03Z</time>
      </trkpt>
      <trkpt lat="43.64572" lon="6.77817">
        <ele>403.8911133</ele>
        <time>2011-06-16T08:34:05Z</time>
      </trkpt>
      <trkpt lat="43.64579" lon="6.77816">
        <ele>405.3330078</ele>
        <time>2011-06-16T08:34:12Z</time>
      </trkpt>
      <trkpt lat="43.64584" lon="6.7781">
        <ele>405.8137207</ele>
        <time>2011-06-16T08:34:16Z</time>
      </trkpt>
      <trkpt lat="43.6459" lon="6.77805">
        <ele>406.7749023</ele>
        <time>2011-06-16T08:34:22Z</time>
      </trkpt>
      <trkpt lat="43.64598" lon="6.77795">
        <ele>406.7749023</ele>
        <time>2011-06-16T08:34:26Z</time>
      </trkpt>
      <trkpt lat="43.64605" lon="6.77787">
        <ele>407.7363281</ele>
        <time>2011-06-16T08:34:34Z</time>
      </trkpt>
      <trkpt lat="43.64608" lon="6.77784">
        <ele>407.7363281</ele>
        <time>2011-06-16T08:34:37Z</time>
      </trkpt>
      <trkpt lat="43.64618" lon="6.77781">
        <ele>410.1396484</ele>
        <time>2011-06-16T08:34:47Z</time>
      </trkpt>
      <trkpt lat="43.64631" lon="6.77785">
        <ele>411.1009521</ele>
        <time>2011-06-16T08:34:55Z</time>
      </trkpt>
      <trkpt lat="43.64636" lon="6.77786">
        <ele>412.0622559</ele>
        <time>2011-06-16T08:34:58Z</time>
      </trkpt>
      <trkpt lat="43.64639" lon="6.77789">
        <ele>412.0622559</ele>
        <time>2011-06-16T08:35:01Z</time>
      </trkpt>
      <trkpt lat="43.64643" lon="6.77791">
        <ele>412.5428467</ele>
        <time>2011-06-16T08:35:04Z</time>
      </trkpt>
      <trkpt lat="43.64646" lon="6.77795">
        <ele>413.0235596</ele>
        <time>2011-06-16T08:35:06Z</time>
      </trkpt>
      <trkpt lat="43.64652" lon="6.77799">
        <ele>414.4654541</ele>
        <time>2011-06-16T08:35:26Z</time>
      </trkpt>
      <trkpt lat="43.64652" lon="6.77801">
        <ele>414.4654541</ele>
        <time>2011-06-16T08:35:35Z</time>
      </trkpt>
      <trkpt lat="43.64658" lon="6.77808">
        <ele>415.9074707</ele>
        <time>2011-06-16T08:35:41Z</time>
      </trkpt>
      <trkpt lat="43.64677" lon="6.77837">
        <ele>418.310791</ele>
        <time>2011-06-16T08:35:58Z</time>
      </trkpt>
      <trkpt lat="43.64685" lon="6.77849">
        <ele>419.2722168</ele>
        <time>2011-06-16T08:36:06Z</time>
      </trkpt>
      <trkpt lat="43.64686" lon="6.77854">
        <ele>420.2333984</ele>
        <time>2011-06-16T08:36:09Z</time>
      </trkpt>
      <trkpt lat="43.64688" lon="6.77859">
        <ele>420.7141113</ele>
        <time>2011-06-16T08:36:12Z</time>
      </trkpt>
      <trkpt lat="43.64687" lon="6.77878">
        <ele>421.1948242</ele>
        <time>2011-06-16T08:36:21Z</time>
      </trkpt>
      <trkpt lat="43.6469" lon="6.77881">
        <ele>420.7141113</ele>
        <time>2011-06-16T08:36:35Z</time>
      </trkpt>
      <trkpt lat="43.64698" lon="6.77895">
        <ele>420.7141113</ele>
        <time>2011-06-16T08:37:08Z</time>
      </trkpt>
      <trkpt lat="43.64715" lon="6.77915">
        <ele>421.675415</ele>
        <time>2011-06-16T08:37:18Z</time>
      </trkpt>
      <trkpt lat="43.6471" lon="6.77919">
        <ele>420.7141113</ele>
        <time>2011-06-16T08:37:24Z</time>
      </trkpt>
      <trkpt lat="43.64694" lon="6.77912">
        <ele>419.7528076</ele>
        <time>2011-06-16T08:37:32Z</time>
      </trkpt>
      <trkpt lat="43.64687" lon="6.7792">
        <ele>420.2333984</ele>
        <time>2011-06-16T08:37:36Z</time>
      </trkpt>
      <trkpt lat="43.64684" lon="6.77936">
        <ele>419.7528076</ele>
        <time>2011-06-16T08:37:40Z</time>
      </trkpt>
      <trkpt lat="43.6467" lon="6.77973">
        <ele>415.9074707</ele>
        <time>2011-06-16T08:37:46Z</time>
      </trkpt>
      <trkpt lat="43.64665" lon="6.77999">
        <ele>415.4268799</ele>
        <time>2011-06-16T08:37:50Z</time>
      </trkpt>
      <trkpt lat="43.64684" lon="6.78018">
        <ele>413.0235596</ele>
        <time>2011-06-16T08:37:54Z</time>
      </trkpt>
      <trkpt lat="43.6469" lon="6.78017">
        <ele>413.0235596</ele>
        <time>2011-06-16T08:37:55Z</time>
      </trkpt>
      <trkpt lat="43.64702" lon="6.78014">
        <ele>411.581665</ele>
        <time>2011-06-16T08:37:57Z</time>
      </trkpt>
      <trkpt lat="43.64719" lon="6.7801">
        <ele>411.581665</ele>
        <time>2011-06-16T08:38:05Z</time>
      </trkpt>
      <trkpt lat="43.64715" lon="6.78012">
        <ele>410.1396484</ele>
        <time>2011-06-16T08:38:09Z</time>
      </trkpt>
      <trkpt lat="43.64712" lon="6.78012">
        <ele>408.6976318</ele>
        <time>2011-06-16T08:38:11Z</time>
      </trkpt>
      <trkpt lat="43.64709" lon="6.78013">
        <ele>407.2556152</ele>
        <time>2011-06-16T08:38:13Z</time>
      </trkpt>
      <trkpt lat="43.64714" lon="6.7804">
        <ele>407.2556152</ele>
        <time>2011-06-16T08:38:18Z</time>
      </trkpt>
      <trkpt lat="43.6472" lon="6.78041">
        <ele>404.8522949</ele>
        <time>2011-06-16T08:38:20Z</time>
      </trkpt>
      <trkpt lat="43.64725" lon="6.78041">
        <ele>403.4104004</ele>
        <time>2011-06-16T08:38:23Z</time>
      </trkpt>
      <trkpt lat="43.64729" lon="6.7804">
        <ele>401.9685059</ele>
        <time>2011-06-16T08:38:25Z</time>
      </trkpt>
      <trkpt lat="43.64747" lon="6.78031">
        <ele>398.1231689</ele>
        <time>2011-06-16T08:38:32Z</time>
      </trkpt>
      <trkpt lat="43.64763" lon="6.7802">
        <ele>395.2391357</ele>
        <time>2011-06-16T08:38:39Z</time>
      </trkpt>
      <trkpt lat="43.6479" lon="6.78009">
        <ele>393.3165283</ele>
        <time>2011-06-16T08:38:48Z</time>
      </trkpt>
      <trkpt lat="43.64806" lon="6.78008">
        <ele>390.913208</ele>
        <time>2011-06-16T08:38:53Z</time>
      </trkpt>
      <trkpt lat="43.64817" lon="6.78007">
        <ele>388.9906006</ele>
        <time>2011-06-16T08:38:57Z</time>
      </trkpt>
      <trkpt lat="43.6482" lon="6.78007">
        <ele>387.548584</ele>
        <time>2011-06-16T08:38:58Z</time>
      </trkpt>
      <trkpt lat="43.64835" lon="6.78007">
        <ele>385.6259766</ele>
        <time>2011-06-16T08:39:03Z</time>
      </trkpt>
      <trkpt lat="43.64854" lon="6.78008">
        <ele>383.7032471</ele>
        <time>2011-06-16T08:39:08Z</time>
      </trkpt>
      <trkpt lat="43.64871" lon="6.78013">
        <ele>379.8580322</ele>
        <time>2011-06-16T08:39:15Z</time>
      </trkpt>
      <trkpt lat="43.64873" lon="6.78014">
        <ele>379.8580322</ele>
        <time>2011-06-16T08:39:16Z</time>
      </trkpt>
      <trkpt lat="43.64877" lon="6.78016">
        <ele>379.3774414</ele>
        <time>2011-06-16T08:39:20Z</time>
      </trkpt>
      <trkpt lat="43.64897" lon="6.78025">
        <ele>374.5708008</ele>
        <time>2011-06-16T08:39:29Z</time>
      </trkpt>
      <trkpt lat="43.64901" lon="6.78026">
        <ele>374.0900879</ele>
        <time>2011-06-16T08:39:31Z</time>
      </trkpt>
      <trkpt lat="43.64925" lon="6.78032">
        <ele>370.7255859</ele>
        <time>2011-06-16T08:39:42Z</time>
      </trkpt>
      <trkpt lat="43.64927" lon="6.78032">
        <ele>370.7255859</ele>
        <time>2011-06-16T08:39:43Z</time>
      </trkpt>
      <trkpt lat="43.64936" lon="6.78035">
        <ele>370.7255859</ele>
        <time>2011-06-16T08:39:47Z</time>
      </trkpt>
      <trkpt lat="43.6494" lon="6.78037">
        <ele>369.2836914</ele>
        <time>2011-06-16T08:39:49Z</time>
      </trkpt>
      <trkpt lat="43.64948" lon="6.78041">
        <ele>367.3609619</ele>
        <time>2011-06-16T08:39:53Z</time>
      </trkpt>
      <trkpt lat="43.64953" lon="6.78044">
        <ele>365.9189453</ele>
        <time>2011-06-16T08:39:56Z</time>
      </trkpt>
      <trkpt lat="43.64959" lon="6.78047">
        <ele>363.9963379</ele>
        <time>2011-06-16T08:40:00Z</time>
      </trkpt>
      <trkpt lat="43.64961" lon="6.78047">
        <ele>363.5157471</ele>
        <time>2011-06-16T08:40:20Z</time>
      </trkpt>
      <trkpt lat="43.64961" lon="6.78047">
        <ele>363.9963379</ele>
        <time>2011-06-16T08:41:33Z</time>
      </trkpt>
      <trkpt lat="43.6497" lon="6.78053">
        <ele>362.0737305</ele>
        <time>2011-06-16T08:41:49Z</time>
      </trkpt>
      <trkpt lat="43.64975" lon="6.78056">
        <ele>360.6317139</ele>
        <time>2011-06-16T08:41:55Z</time>
      </trkpt>
      <trkpt lat="43.64979" lon="6.78058">
        <ele>359.1896973</ele>
        <time>2011-06-16T08:41:59Z</time>
      </trkpt>
      <trkpt lat="43.64987" lon="6.78064">
        <ele>357.2670898</ele>
        <time>2011-06-16T08:42:05Z</time>
      </trkpt>
      <trkpt lat="43.65" lon="6.78069">
        <ele>354.8637695</ele>
        <time>2011-06-16T08:42:13Z</time>
      </trkpt>
      <trkpt lat="43.65003" lon="6.78069">
        <ele>353.9025879</ele>
        <time>2011-06-16T08:42:15Z</time>
      </trkpt>
      <trkpt lat="43.65006" lon="6.78069">
        <ele>353.9025879</ele>
        <time>2011-06-16T08:42:17Z</time>
      </trkpt>
      <trkpt lat="43.65006" lon="6.78069">
        <ele>352.9411621</ele>
        <time>2011-06-16T08:42:19Z</time>
      </trkpt>
      <trkpt lat="43.65017" lon="6.78069">
        <ele>351.9798584</ele>
        <time>2011-06-16T08:42:23Z</time>
      </trkpt>
      <trkpt lat="43.65031" lon="6.78067">
        <ele>349.5765381</ele>
        <time>2011-06-16T08:42:29Z</time>
      </trkpt>
      <trkpt lat="43.65044" lon="6.78067">
        <ele>346.2120361</ele>
        <time>2011-06-16T08:42:37Z</time>
      </trkpt>
      <trkpt lat="43.65044" lon="6.78067">
        <ele>345.2506104</ele>
        <time>2011-06-16T08:42:41Z</time>
      </trkpt>
      <trkpt lat="43.65044" lon="6.78066">
        <ele>344.7700195</ele>
        <time>2011-06-16T08:42:43Z</time>
      </trkpt>
      <trkpt lat="43.65039" lon="6.78071">
        <ele>344.2894287</ele>
        <time>2011-06-16T08:42:46Z</time>
      </trkpt>
      <trkpt lat="43.65029" lon="6.78083">
        <ele>342.3666992</ele>
        <time>2011-06-16T08:42:52Z</time>
      </trkpt>
      <trkpt lat="43.65024" lon="6.78084">
        <ele>340.9246826</ele>
        <time>2011-06-16T08:42:55Z</time>
      </trkpt>
      <trkpt lat="43.65023" lon="6.78084">
        <ele>340.9246826</ele>
        <time>2011-06-16T08:42:56Z</time>
      </trkpt>
      <trkpt lat="43.65013" lon="6.78098">
        <ele>337.0794678</ele>
        <time>2011-06-16T08:43:04Z</time>
      </trkpt>
      <trkpt lat="43.65021" lon="6.78099">
        <ele>335.1567383</ele>
        <time>2011-06-16T08:43:11Z</time>
      </trkpt>
      <trkpt lat="43.65022" lon="6.78099">
        <ele>335.1567383</ele>
        <time>2011-06-16T08:43:12Z</time>
      </trkpt>
      <trkpt lat="43.65025" lon="6.78098">
        <ele>334.1954346</ele>
        <time>2011-06-16T08:43:14Z</time>
      </trkpt>
      <trkpt lat="43.6503" lon="6.78099">
        <ele>332.75354</ele>
        <time>2011-06-16T08:43:17Z</time>
      </trkpt>
      <trkpt lat="43.65041" lon="6.78098">
        <ele>330.8309326</ele>
        <time>2011-06-16T08:43:28Z</time>
      </trkpt>
      <trkpt lat="43.65057" lon="6.78101">
        <ele>326.9855957</ele>
        <time>2011-06-16T08:43:38Z</time>
      </trkpt>
      <trkpt lat="43.65064" lon="6.78104">
        <ele>325.0629883</ele>
        <time>2011-06-16T08:43:43Z</time>
      </trkpt>
      <trkpt lat="43.65071" lon="6.78104">
        <ele>323.6209717</ele>
        <time>2011-06-16T08:43:53Z</time>
      </trkpt>
      <trkpt lat="43.65071" lon="6.78109">
        <ele>321.2177734</ele>
        <time>2011-06-16T08:44:02Z</time>
      </trkpt>
      <trkpt lat="43.65078" lon="6.78108">
        <ele>320.7370605</ele>
        <time>2011-06-16T08:44:06Z</time>
      </trkpt>
      <trkpt lat="43.65083" lon="6.78106">
        <ele>319.2950439</ele>
        <time>2011-06-16T08:44:09Z</time>
      </trkpt>
      <trkpt lat="43.65085" lon="6.78105">
        <ele>318.3336182</ele>
        <time>2011-06-16T08:44:11Z</time>
      </trkpt>
      <trkpt lat="43.6509" lon="6.78104">
        <ele>317.8530273</ele>
        <time>2011-06-16T08:44:14Z</time>
      </trkpt>
      <trkpt lat="43.65106" lon="6.78102">
        <ele>314.4884033</ele>
        <time>2011-06-16T08:44:21Z</time>
      </trkpt>
      <trkpt lat="43.6511" lon="6.78099">
        <ele>314.0078125</ele>
        <time>2011-06-16T08:44:23Z</time>
      </trkpt>
      <trkpt lat="43.65115" lon="6.78098">
        <ele>313.0465088</ele>
        <time>2011-06-16T08:44:26Z</time>
      </trkpt>
      <trkpt lat="43.65125" lon="6.78089">
        <ele>311.6044922</ele>
        <time>2011-06-16T08:44:31Z</time>
      </trkpt>
      <trkpt lat="43.65133" lon="6.78081">
        <ele>309.6818848</ele>
        <time>2011-06-16T08:44:36Z</time>
      </trkpt>
      <trkpt lat="43.65137" lon="6.78074">
        <ele>308.720459</ele>
        <time>2011-06-16T08:44:40Z</time>
      </trkpt>
      <trkpt lat="43.65145" lon="6.78068">
        <ele>306.7978516</ele>
        <time>2011-06-16T08:44:44Z</time>
      </trkpt>
      <trkpt lat="43.65149" lon="6.78067">
        <ele>305.355957</ele>
        <time>2011-06-16T08:44:46Z</time>
      </trkpt>
      <trkpt lat="43.6515" lon="6.78066">
        <ele>304.8752441</ele>
        <time>2011-06-16T08:44:47Z</time>
      </trkpt>
      <trkpt lat="43.6516" lon="6.78061">
        <ele>303.9139404</ele>
        <time>2011-06-16T08:44:52Z</time>
      </trkpt>
      <trkpt lat="43.65165" lon="6.78059">
        <ele>302.4719238</ele>
        <time>2011-06-16T08:44:54Z</time>
      </trkpt>
      <trkpt lat="43.6517" lon="6.78058">
        <ele>301.0299072</ele>
        <time>2011-06-16T08:44:56Z</time>
      </trkpt>
      <trkpt lat="43.65185" lon="6.78046">
        <ele>298.1461182</ele>
        <time>2011-06-16T08:45:03Z</time>
      </trkpt>
      <trkpt lat="43.65189" lon="6.78044">
        <ele>296.7041016</ele>
        <time>2011-06-16T08:45:18Z</time>
      </trkpt>
      <trkpt lat="43.65192" lon="6.78044">
        <ele>296.7041016</ele>
        <time>2011-06-16T08:45:20Z</time>
      </trkpt>
      <trkpt lat="43.65211" lon="6.78038">
        <ele>293.3393555</ele>
        <time>2011-06-16T08:45:29Z</time>
      </trkpt>
      <trkpt lat="43.65227" lon="6.78028">
        <ele>291.8974609</ele>
        <time>2011-06-16T08:45:35Z</time>
      </trkpt>
      <trkpt lat="43.65247" lon="6.78016">
        <ele>288.532959</ele>
        <time>2011-06-16T08:45:45Z</time>
      </trkpt>
      <trkpt lat="43.65256" lon="6.78009">
        <ele>286.1295166</ele>
        <time>2011-06-16T08:45:49Z</time>
      </trkpt>
      <trkpt lat="43.65272" lon="6.78">
        <ele>282.7650146</ele>
        <time>2011-06-16T08:45:54Z</time>
      </trkpt>
      <trkpt lat="43.65273" lon="6.77984">
        <ele>282.7650146</ele>
        <time>2011-06-16T08:45:55Z</time>
      </trkpt>
      <trkpt lat="43.65293" lon="6.77965">
        <ele>278.9196777</ele>
        <time>2011-06-16T08:46:03Z</time>
      </trkpt>
      <trkpt lat="43.65297" lon="6.77961">
        <ele>278.9196777</ele>
        <time>2011-06-16T08:46:04Z</time>
      </trkpt>
      <trkpt lat="43.65313" lon="6.77942">
        <ele>275.0744629</ele>
        <time>2011-06-16T08:46:12Z</time>
      </trkpt>
      <trkpt lat="43.65319" lon="6.77933">
        <ele>273.1518555</ele>
        <time>2011-06-16T08:46:16Z</time>
      </trkpt>
      <trkpt lat="43.6532" lon="6.77931">
        <ele>272.1904297</ele>
        <time>2011-06-16T08:46:17Z</time>
      </trkpt>
      <trkpt lat="43.65325" lon="6.77922">
        <ele>270.7484131</ele>
        <time>2011-06-16T08:46:21Z</time>
      </trkpt>
      <trkpt lat="43.65329" lon="6.77917">
        <ele>269.3065186</ele>
        <time>2011-06-16T08:46:23Z</time>
      </trkpt>
      <trkpt lat="43.6533" lon="6.77915">
        <ele>268.8258057</ele>
        <time>2011-06-16T08:46:24Z</time>
      </trkpt>
      <trkpt lat="43.6534" lon="6.77898">
        <ele>265.9418945</ele>
        <time>2011-06-16T08:46:30Z</time>
      </trkpt>
      <trkpt lat="43.65345" lon="6.77891">
        <ele>264.0192871</ele>
        <time>2011-06-16T08:46:34Z</time>
      </trkpt>
      <trkpt lat="43.65354" lon="6.77875">
        <ele>261.6159668</ele>
        <time>2011-06-16T08:46:39Z</time>
      </trkpt>
      <trkpt lat="43.65365" lon="6.77861">
        <ele>260.1739502</ele>
        <time>2011-06-16T08:46:43Z</time>
      </trkpt>
      <trkpt lat="43.65375" lon="6.77849">
        <ele>258.2513428</ele>
        <time>2011-06-16T08:46:47Z</time>
      </trkpt>
      <trkpt lat="43.65383" lon="6.77839">
        <ele>257.2900391</ele>
        <time>2011-06-16T08:46:51Z</time>
      </trkpt>
      <trkpt lat="43.65386" lon="6.77835">
        <ele>256.3287354</ele>
        <time>2011-06-16T08:46:53Z</time>
      </trkpt>
      <trkpt lat="43.65392" lon="6.77826">
        <ele>254.4060059</ele>
        <time>2011-06-16T08:46:57Z</time>
      </trkpt>
      <trkpt lat="43.65399" lon="6.77819">
        <ele>251.0413818</ele>
        <time>2011-06-16T08:47:02Z</time>
      </trkpt>
      <trkpt lat="43.65403" lon="6.77813">
        <ele>249.1187744</ele>
        <time>2011-06-16T08:47:07Z</time>
      </trkpt>
      <trkpt lat="43.65411" lon="6.77805">
        <ele>248.1575928</ele>
        <time>2011-06-16T08:47:11Z</time>
      </trkpt>
      <trkpt lat="43.65411" lon="6.77805">
        <ele>246.2348633</ele>
        <time>2011-06-16T08:47:14Z</time>
      </trkpt>
      <trkpt lat="43.65411" lon="6.77805">
        <ele>245.2734375</ele>
        <time>2011-06-16T08:47:17Z</time>
      </trkpt>
      <trkpt lat="43.65428" lon="6.77762">
        <ele>243.3508301</ele>
        <time>2011-06-16T08:47:23Z</time>
      </trkpt>
      <trkpt lat="43.65429" lon="6.77761">
        <ele>241.4282227</ele>
        <time>2011-06-16T08:47:24Z</time>
      </trkpt>
      <trkpt lat="43.65433" lon="6.77755">
        <ele>240.467041</ele>
        <time>2011-06-16T08:47:26Z</time>
      </trkpt>
      <trkpt lat="43.65466" lon="6.77724">
        <ele>237.5828857</ele>
        <time>2011-06-16T08:47:37Z</time>
      </trkpt>
      <trkpt lat="43.65467" lon="6.77723">
        <ele>236.6217041</ele>
        <time>2011-06-16T08:47:42Z</time>
      </trkpt>
      <trkpt lat="43.65491" lon="6.77685">
        <ele>233.2570801</ele>
        <time>2011-06-16T08:47:48Z</time>
      </trkpt>
      <trkpt lat="43.6553" lon="6.7766">
        <ele>232.7764893</ele>
        <time>2011-06-16T08:48:02Z</time>
      </trkpt>
      <trkpt lat="43.65566" lon="6.7764">
        <ele>234.6990967</ele>
        <time>2011-06-16T08:48:18Z</time>
      </trkpt>
      <trkpt lat="43.6557" lon="6.77638">
        <ele>231.3343506</ele>
        <time>2011-06-16T08:48:25Z</time>
      </trkpt>
      <trkpt lat="43.6557" lon="6.77638">
        <ele>231.3343506</ele>
        <time>2011-06-16T08:48:26Z</time>
      </trkpt>
      <trkpt lat="43.6557" lon="6.77638">
        <ele>231.3343506</ele>
        <time>2011-06-16T08:48:27Z</time>
      </trkpt>
      <trkpt lat="43.6559" lon="6.77625">
        <ele>228.4504395</ele>
        <time>2011-06-16T08:48:32Z</time>
      </trkpt>
      <trkpt lat="43.65599" lon="6.77626">
        <ele>227.4891357</ele>
        <time>2011-06-16T08:48:34Z</time>
      </trkpt>
      <trkpt lat="43.65604" lon="6.77627">
        <ele>227.9697266</ele>
        <time>2011-06-16T08:48:36Z</time>
      </trkpt>
      <trkpt lat="43.65631" lon="6.77628">
        <ele>228.4504395</ele>
        <time>2011-06-16T08:48:45Z</time>
      </trkpt>
      <trkpt lat="43.65635" lon="6.77631">
        <ele>229.892334</ele>
        <time>2011-06-16T08:48:48Z</time>
      </trkpt>
      <trkpt lat="43.65651" lon="6.77635">
        <ele>229.892334</ele>
        <time>2011-06-16T08:48:59Z</time>
      </trkpt>
      <trkpt lat="43.65679" lon="6.77627">
        <ele>228.4504395</ele>
        <time>2011-06-16T08:49:14Z</time>
      </trkpt>
      <trkpt lat="43.65716" lon="6.77592">
        <ele>227.9697266</ele>
        <time>2011-06-16T08:49:24Z</time>
      </trkpt>
      <trkpt lat="43.65759" lon="6.77586">
        <ele>226.0471191</ele>
        <time>2011-06-16T08:49:36Z</time>
      </trkpt>
      <trkpt lat="43.65775" lon="6.77589">
        <ele>225.5665283</ele>
        <time>2011-06-16T08:49:41Z</time>
      </trkpt>
      <trkpt lat="43.65782" lon="6.77605">
        <ele>222.6824951</ele>
        <time>2011-06-16T08:49:49Z</time>
      </trkpt>
      <trkpt lat="43.65783" lon="6.77607">
        <ele>222.6824951</ele>
        <time>2011-06-16T08:49:50Z</time>
      </trkpt>
      <trkpt lat="43.65788" lon="6.77614">
        <ele>220.7598877</ele>
        <time>2011-06-16T08:49:53Z</time>
      </trkpt>
      <trkpt lat="43.6579" lon="6.77614">
        <ele>219.798584</ele>
        <time>2011-06-16T08:49:54Z</time>
      </trkpt>
      <trkpt lat="43.6581" lon="6.7761">
        <ele>218.3565674</ele>
        <time>2011-06-16T08:50:02Z</time>
      </trkpt>
      <trkpt lat="43.65817" lon="6.77614">
        <ele>216.9146729</ele>
        <time>2011-06-16T08:50:05Z</time>
      </trkpt>
      <trkpt lat="43.65821" lon="6.77617">
        <ele>217.3953857</ele>
        <time>2011-06-16T08:50:13Z</time>
      </trkpt>
      <trkpt lat="43.65835" lon="6.77623">
        <ele>215.9532471</ele>
        <time>2011-06-16T08:50:18Z</time>
      </trkpt>
      <trkpt lat="43.65866" lon="6.77623">
        <ele>214.9919434</ele>
        <time>2011-06-16T08:50:29Z</time>
      </trkpt>
      <trkpt lat="43.65891" lon="6.77626">
        <ele>213.0693359</ele>
        <time>2011-06-16T08:50:37Z</time>
      </trkpt>
      <trkpt lat="43.65894" lon="6.77627">
        <ele>212.1080322</ele>
        <time>2011-06-16T08:50:38Z</time>
      </trkpt>
      <trkpt lat="43.65906" lon="6.77631">
        <ele>212.1080322</ele>
        <time>2011-06-16T08:50:44Z</time>
      </trkpt>
      <trkpt lat="43.65916" lon="6.77634">
        <ele>212.588623</ele>
        <time>2011-06-16T08:50:48Z</time>
      </trkpt>
      <trkpt lat="43.65922" lon="6.77635">
        <ele>210.6660156</ele>
        <time>2011-06-16T08:50:52Z</time>
      </trkpt>
      <trkpt lat="43.65922" lon="6.77635">
        <ele>208.7434082</ele>
        <time>2011-06-16T08:50:55Z</time>
      </trkpt>
      <trkpt lat="43.65969" lon="6.7762">
        <ele>205.8594971</ele>
        <time>2011-06-16T08:51:05Z</time>
      </trkpt>
      <trkpt lat="43.65969" lon="6.7762">
        <ele>204.8980713</ele>
        <time>2011-06-16T08:51:20Z</time>
      </trkpt>
      <trkpt lat="43.65969" lon="6.7762">
        <ele>202.9754639</ele>
        <time>2011-06-16T08:51:31Z</time>
      </trkpt>
      <trkpt lat="43.65973" lon="6.77646">
        <ele>201.0528564</ele>
        <time>2011-06-16T08:51:36Z</time>
      </trkpt>
      <trkpt lat="43.65973" lon="6.77646">
        <ele>200.5722656</ele>
        <time>2011-06-16T08:51:38Z</time>
      </trkpt>
      <trkpt lat="43.65982" lon="6.77644">
        <ele>197.6882324</ele>
        <time>2011-06-16T08:51:44Z</time>
      </trkpt>
      <trkpt lat="43.65985" lon="6.77646">
        <ele>197.2075195</ele>
        <time>2011-06-16T08:51:48Z</time>
      </trkpt>
      <trkpt lat="43.65988" lon="6.77656">
        <ele>197.2075195</ele>
        <time>2011-06-16T08:52:01Z</time>
      </trkpt>
      <trkpt lat="43.65988" lon="6.77656">
        <ele>197.6882324</ele>
        <time>2011-06-16T08:52:35Z</time>
      </trkpt>
      <trkpt lat="43.65988" lon="6.77656">
        <ele>196.2463379</ele>
        <time>2011-06-16T08:56:31Z</time>
      </trkpt>
      <trkpt lat="43.65983" lon="6.77643">
        <ele>196.7269287</ele>
        <time>2011-06-16T08:56:39Z</time>
      </trkpt>
      <trkpt lat="43.6598" lon="6.77644">
        <ele>196.7269287</ele>
        <time>2011-06-16T08:56:44Z</time>
      </trkpt>
      <trkpt lat="43.65942" lon="6.77659">
        <ele>195.2849121</ele>
        <time>2011-06-16T08:56:59Z</time>
      </trkpt>
      <trkpt lat="43.65939" lon="6.77659">
        <ele>196.2463379</ele>
        <time>2011-06-16T08:57:00Z</time>
      </trkpt>
      <trkpt lat="43.6592" lon="6.77668">
        <ele>195.765625</ele>
        <time>2011-06-16T08:57:07Z</time>
      </trkpt>
      <trkpt lat="43.6589" lon="6.77689">
        <ele>195.765625</ele>
        <time>2011-06-16T08:57:19Z</time>
      </trkpt>
      <trkpt lat="43.6585" lon="6.77706">
        <ele>196.2463379</ele>
        <time>2011-06-16T08:57:34Z</time>
      </trkpt>
      <trkpt lat="43.65841" lon="6.77709">
        <ele>195.2849121</ele>
        <time>2011-06-16T08:57:38Z</time>
      </trkpt>
      <trkpt lat="43.65836" lon="6.77711">
        <ele>194.8043213</ele>
        <time>2011-06-16T08:57:40Z</time>
      </trkpt>
      <trkpt lat="43.65809" lon="6.77714">
        <ele>193.8430176</ele>
        <time>2011-06-16T08:57:49Z</time>
      </trkpt>
      <trkpt lat="43.65797" lon="6.77713">
        <ele>194.8043213</ele>
        <time>2011-06-16T08:57:54Z</time>
      </trkpt>
      <trkpt lat="43.65786" lon="6.77715">
        <ele>195.2849121</ele>
        <time>2011-06-16T08:57:59Z</time>
      </trkpt>
      <trkpt lat="43.6578" lon="6.77717">
        <ele>195.765625</ele>
        <time>2011-06-16T08:58:07Z</time>
      </trkpt>
      <trkpt lat="43.6576" lon="6.77726">
        <ele>194.3237305</ele>
        <time>2011-06-16T08:58:17Z</time>
      </trkpt>
      <trkpt lat="43.6575" lon="6.77731">
        <ele>194.8043213</ele>
        <time>2011-06-16T08:58:23Z</time>
      </trkpt>
      <trkpt lat="43.65746" lon="6.77733">
        <ele>194.8043213</ele>
        <time>2011-06-16T08:58:27Z</time>
      </trkpt>
      <trkpt lat="43.65722" lon="6.77714">
        <ele>194.3237305</ele>
        <time>2011-06-16T08:58:40Z</time>
      </trkpt>
      <trkpt lat="43.65685" lon="6.77715">
        <ele>193.8430176</ele>
        <time>2011-06-16T08:58:55Z</time>
      </trkpt>
      <trkpt lat="43.65655" lon="6.77711">
        <ele>194.3237305</ele>
        <time>2011-06-16T08:59:10Z</time>
      </trkpt>
      <trkpt lat="43.65626" lon="6.77732">
        <ele>193.8430176</ele>
        <time>2011-06-16T08:59:23Z</time>
      </trkpt>
      <trkpt lat="43.65614" lon="6.77739">
        <ele>193.8430176</ele>
        <time>2011-06-16T08:59:28Z</time>
      </trkpt>
      <trkpt lat="43.65605" lon="6.7774">
        <ele>193.8430176</ele>
        <time>2011-06-16T08:59:32Z</time>
      </trkpt>
      <trkpt lat="43.65597" lon="6.7774">
        <ele>193.3623047</ele>
        <time>2011-06-16T08:59:34Z</time>
      </trkpt>
      <trkpt lat="43.6558" lon="6.77744">
        <ele>194.3237305</ele>
        <time>2011-06-16T08:59:43Z</time>
      </trkpt>
      <trkpt lat="43.65574" lon="6.7775">
        <ele>193.8430176</ele>
        <time>2011-06-16T08:59:46Z</time>
      </trkpt>
      <trkpt lat="43.65569" lon="6.77753">
        <ele>193.3623047</ele>
        <time>2011-06-16T08:59:48Z</time>
      </trkpt>
      <trkpt lat="43.65543" lon="6.77782">
        <ele>193.8430176</ele>
        <time>2011-06-16T09:00:01Z</time>
      </trkpt>
      <trkpt lat="43.65533" lon="6.77788">
        <ele>194.3237305</ele>
        <time>2011-06-16T09:00:05Z</time>
      </trkpt>
      <trkpt lat="43.65528" lon="6.77797">
        <ele>192.8817139</ele>
        <time>2011-06-16T09:00:09Z</time>
      </trkpt>
      <trkpt lat="43.65519" lon="6.7784">
        <ele>193.3623047</ele>
        <time>2011-06-16T09:00:23Z</time>
      </trkpt>
      <trkpt lat="43.65511" lon="6.77857">
        <ele>193.8430176</ele>
        <time>2011-06-16T09:00:31Z</time>
      </trkpt>
      <trkpt lat="43.65505" lon="6.77871">
        <ele>192.8817139</ele>
        <time>2011-06-16T09:00:36Z</time>
      </trkpt>
      <trkpt lat="43.65505" lon="6.77879">
        <ele>193.3623047</ele>
        <time>2011-06-16T09:00:39Z</time>
      </trkpt>
      <trkpt lat="43.65511" lon="6.77893">
        <ele>192.401123</ele>
        <time>2011-06-16T09:00:45Z</time>
      </trkpt>
      <trkpt lat="43.6551" lon="6.77904">
        <ele>191.4395752</ele>
        <time>2011-06-16T09:00:48Z</time>
      </trkpt>
      <trkpt lat="43.65508" lon="6.7791">
        <ele>192.8817139</ele>
        <time>2011-06-16T09:01:00Z</time>
      </trkpt>
      <trkpt lat="43.65498" lon="6.77956">
        <ele>190.9589844</ele>
        <time>2011-06-16T09:01:12Z</time>
      </trkpt>
      <trkpt lat="43.65495" lon="6.77962">
        <ele>191.9202881</ele>
        <time>2011-06-16T09:01:14Z</time>
      </trkpt>
      <trkpt lat="43.65493" lon="6.77969">
        <ele>191.9202881</ele>
        <time>2011-06-16T09:01:16Z</time>
      </trkpt>
      <trkpt lat="43.65484" lon="6.77989">
        <ele>191.9202881</ele>
        <time>2011-06-16T09:01:21Z</time>
      </trkpt>
      <trkpt lat="43.65486" lon="6.78016">
        <ele>191.9202881</ele>
        <time>2011-06-16T09:01:27Z</time>
      </trkpt>
      <trkpt lat="43.65478" lon="6.78026">
        <ele>192.401123</ele>
        <time>2011-06-16T09:01:31Z</time>
      </trkpt>
      <trkpt lat="43.65471" lon="6.78043">
        <ele>191.9202881</ele>
        <time>2011-06-16T09:01:36Z</time>
      </trkpt>
      <trkpt lat="43.65468" lon="6.7805">
        <ele>191.4395752</ele>
        <time>2011-06-16T09:01:38Z</time>
      </trkpt>
      <trkpt lat="43.65452" lon="6.78092">
        <ele>191.9202881</ele>
        <time>2011-06-16T09:01:50Z</time>
      </trkpt>
      <trkpt lat="43.65447" lon="6.78105">
        <ele>191.9202881</ele>
        <time>2011-06-16T09:01:54Z</time>
      </trkpt>
      <trkpt lat="43.65445" lon="6.78108">
        <ele>192.401123</ele>
        <time>2011-06-16T09:02:00Z</time>
      </trkpt>
      <trkpt lat="43.65445" lon="6.78108">
        <ele>192.401123</ele>
        <time>2011-06-16T09:02:08Z</time>
      </trkpt>
      <trkpt lat="43.65431" lon="6.78137">
        <ele>191.9202881</ele>
        <time>2011-06-16T09:02:14Z</time>
      </trkpt>
      <trkpt lat="43.65417" lon="6.78165">
        <ele>191.4395752</ele>
        <time>2011-06-16T09:02:21Z</time>
      </trkpt>
      <trkpt lat="43.654" lon="6.78202">
        <ele>191.4395752</ele>
        <time>2011-06-16T09:02:29Z</time>
      </trkpt>
      <trkpt lat="43.65381" lon="6.7824">
        <ele>190.4783936</ele>
        <time>2011-06-16T09:02:42Z</time>
      </trkpt>
      <trkpt lat="43.6537" lon="6.78261">
        <ele>190.4783936</ele>
        <time>2011-06-16T09:02:51Z</time>
      </trkpt>
      <trkpt lat="43.65359" lon="6.78281">
        <ele>188.5557861</ele>
        <time>2011-06-16T09:02:59Z</time>
      </trkpt>
      <trkpt lat="43.65352" lon="6.78295">
        <ele>186.6331787</ele>
        <time>2011-06-16T09:03:04Z</time>
      </trkpt>
      <trkpt lat="43.65332" lon="6.7833">
        <ele>186.6331787</ele>
        <time>2011-06-16T09:03:16Z</time>
      </trkpt>
      <trkpt lat="43.653" lon="6.78367">
        <ele>184.2298584</ele>
        <time>2011-06-16T09:03:30Z</time>
      </trkpt>
      <trkpt lat="43.65282" lon="6.78376">
        <ele>183.2684326</ele>
        <time>2011-06-16T09:03:41Z</time>
      </trkpt>
      <trkpt lat="43.6527" lon="6.78383">
        <ele>181.3458252</ele>
        <time>2011-06-16T09:03:49Z</time>
      </trkpt>
      <trkpt lat="43.65261" lon="6.78398">
        <ele>179.9038086</ele>
        <time>2011-06-16T09:03:54Z</time>
      </trkpt>
      <trkpt lat="43.65253" lon="6.78409">
        <ele>179.9038086</ele>
        <time>2011-06-16T09:03:57Z</time>
      </trkpt>
      <trkpt lat="43.65229" lon="6.78425">
        <ele>178.942627</ele>
        <time>2011-06-16T09:04:08Z</time>
      </trkpt>
      <trkpt lat="43.65215" lon="6.78437">
        <ele>175.09729</ele>
        <time>2011-06-16T09:04:13Z</time>
      </trkpt>
      <trkpt lat="43.65213" lon="6.7844">
        <ele>175.09729</ele>
        <time>2011-06-16T09:04:14Z</time>
      </trkpt>
      <trkpt lat="43.65178" lon="6.78478">
        <ele>174.6165771</ele>
        <time>2011-06-16T09:04:25Z</time>
      </trkpt>
      <trkpt lat="43.65157" lon="6.78495">
        <ele>175.5778809</ele>
        <time>2011-06-16T09:04:29Z</time>
      </trkpt>
      <trkpt lat="43.65131" lon="6.78523">
        <ele>175.09729</ele>
        <time>2011-06-16T09:04:37Z</time>
      </trkpt>
      <trkpt lat="43.65118" lon="6.78519">
        <ele>173.6552734</ele>
        <time>2011-06-16T09:04:39Z</time>
      </trkpt>
      <trkpt lat="43.65096" lon="6.78543">
        <ele>173.1746826</ele>
        <time>2011-06-16T09:04:48Z</time>
      </trkpt>
      <trkpt lat="43.65078" lon="6.78546">
        <ele>173.1746826</ele>
        <time>2011-06-16T09:04:53Z</time>
      </trkpt>
      <trkpt lat="43.65061" lon="6.78547">
        <ele>174.1358643</ele>
        <time>2011-06-16T09:04:57Z</time>
      </trkpt>
      <trkpt lat="43.6504" lon="6.7854">
        <ele>173.1746826</ele>
        <time>2011-06-16T09:05:02Z</time>
      </trkpt>
      <trkpt lat="43.65005" lon="6.78529">
        <ele>172.2132568</ele>
        <time>2011-06-16T09:05:14Z</time>
      </trkpt>
      <trkpt lat="43.65002" lon="6.78527">
        <ele>172.2132568</ele>
        <time>2011-06-16T09:05:15Z</time>
      </trkpt>
      <trkpt lat="43.64968" lon="6.78508">
        <ele>172.6939697</ele>
        <time>2011-06-16T09:05:27Z</time>
      </trkpt>
      <trkpt lat="43.64957" lon="6.78502">
        <ele>172.2132568</ele>
        <time>2011-06-16T09:05:33Z</time>
      </trkpt>
      <trkpt lat="43.64946" lon="6.78493">
        <ele>172.2132568</ele>
        <time>2011-06-16T09:05:39Z</time>
      </trkpt>
      <trkpt lat="43.64938" lon="6.78486">
        <ele>171.732666</ele>
        <time>2011-06-16T09:05:42Z</time>
      </trkpt>
      <trkpt lat="43.64927" lon="6.78475">
        <ele>171.732666</ele>
        <time>2011-06-16T09:05:48Z</time>
      </trkpt>
      <trkpt lat="43.64924" lon="6.78465">
        <ele>172.2132568</ele>
        <time>2011-06-16T09:05:54Z</time>
      </trkpt>
      <trkpt lat="43.64909" lon="6.78458">
        <ele>172.2132568</ele>
        <time>2011-06-16T09:06:03Z</time>
      </trkpt>
      <trkpt lat="43.64893" lon="6.78453">
        <ele>172.6939697</ele>
        <time>2011-06-16T09:06:15Z</time>
      </trkpt>
      <trkpt lat="43.64888" lon="6.7845">
        <ele>173.6552734</ele>
        <time>2011-06-16T09:06:21Z</time>
      </trkpt>
      <trkpt lat="43.64855" lon="6.78443">
        <ele>173.6552734</ele>
        <time>2011-06-16T09:06:32Z</time>
      </trkpt>
      <trkpt lat="43.64846" lon="6.78447">
        <ele>172.6939697</ele>
        <time>2011-06-16T09:06:36Z</time>
      </trkpt>
      <trkpt lat="43.64807" lon="6.78463">
        <ele>173.1746826</ele>
        <time>2011-06-16T09:06:51Z</time>
      </trkpt>
      <trkpt lat="43.64797" lon="6.78474">
        <ele>174.1358643</ele>
        <time>2011-06-16T09:06:54Z</time>
      </trkpt>
      <trkpt lat="43.64793" lon="6.78476">
        <ele>174.6165771</ele>
        <time>2011-06-16T09:06:56Z</time>
      </trkpt>
      <trkpt lat="43.64792" lon="6.78481">
        <ele>175.09729</ele>
        <time>2011-06-16T09:06:58Z</time>
      </trkpt>
      <trkpt lat="43.64783" lon="6.78495">
        <ele>174.1358643</ele>
        <time>2011-06-16T09:07:02Z</time>
      </trkpt>
      <trkpt lat="43.64755" lon="6.78551">
        <ele>174.6165771</ele>
        <time>2011-06-16T09:07:13Z</time>
      </trkpt>
      <trkpt lat="43.64742" lon="6.78576">
        <ele>173.6552734</ele>
        <time>2011-06-16T09:07:18Z</time>
      </trkpt>
      <trkpt lat="43.64725" lon="6.7861">
        <ele>173.1746826</ele>
        <time>2011-06-16T09:07:26Z</time>
      </trkpt>
      <trkpt lat="43.64721" lon="6.78619">
        <ele>172.6939697</ele>
        <time>2011-06-16T09:07:28Z</time>
      </trkpt>
      <trkpt lat="43.64713" lon="6.78635">
        <ele>171.2520752</ele>
        <time>2011-06-16T09:07:35Z</time>
      </trkpt>
      <trkpt lat="43.64706" lon="6.78646">
        <ele>169.8100586</ele>
        <time>2011-06-16T09:07:38Z</time>
      </trkpt>
      <trkpt lat="43.64691" lon="6.7867">
        <ele>169.8100586</ele>
        <time>2011-06-16T09:07:43Z</time>
      </trkpt>
      <trkpt lat="43.64675" lon="6.78683">
        <ele>169.3294678</ele>
        <time>2011-06-16T09:07:48Z</time>
      </trkpt>
      <trkpt lat="43.64656" lon="6.78695">
        <ele>169.8100586</ele>
        <time>2011-06-16T09:07:54Z</time>
      </trkpt>
      <trkpt lat="43.64632" lon="6.78709">
        <ele>168.8487549</ele>
        <time>2011-06-16T09:08:00Z</time>
      </trkpt>
      <trkpt lat="43.6459" lon="6.78724">
        <ele>170.2906494</ele>
        <time>2011-06-16T09:08:13Z</time>
      </trkpt>
      <trkpt lat="43.64575" lon="6.78734">
        <ele>168.8487549</ele>
        <time>2011-06-16T09:08:16Z</time>
      </trkpt>
      <trkpt lat="43.64551" lon="6.78759">
        <ele>167.4067383</ele>
        <time>2011-06-16T09:08:25Z</time>
      </trkpt>
      <trkpt lat="43.64546" lon="6.78766">
        <ele>167.8873291</ele>
        <time>2011-06-16T09:08:29Z</time>
      </trkpt>
      <trkpt lat="43.64543" lon="6.7877">
        <ele>167.8873291</ele>
        <time>2011-06-16T09:08:35Z</time>
      </trkpt>
      <trkpt lat="43.64539" lon="6.78778">
        <ele>168.8487549</ele>
        <time>2011-06-16T09:08:42Z</time>
      </trkpt>
      <trkpt lat="43.64539" lon="6.78778">
        <ele>168.8487549</ele>
        <time>2011-06-16T09:08:44Z</time>
      </trkpt>
      <trkpt lat="43.64514" lon="6.78806">
        <ele>167.8873291</ele>
        <time>2011-06-16T09:08:54Z</time>
      </trkpt>
      <trkpt lat="43.64511" lon="6.78809">
        <ele>167.8873291</ele>
        <time>2011-06-16T09:08:55Z</time>
      </trkpt>
      <trkpt lat="43.64506" lon="6.78813">
        <ele>168.368042</ele>
        <time>2011-06-16T09:08:57Z</time>
      </trkpt>
      <trkpt lat="43.64485" lon="6.7885">
        <ele>168.368042</ele>
        <time>2011-06-16T09:09:07Z</time>
      </trkpt>
      <trkpt lat="43.64485" lon="6.7885">
        <ele>167.8873291</ele>
        <time>2011-06-16T09:09:17Z</time>
      </trkpt>
      <trkpt lat="43.6448" lon="6.78855">
        <ele>167.8873291</ele>
        <time>2011-06-16T09:09:26Z</time>
      </trkpt>
      <trkpt lat="43.64459" lon="6.78877">
        <ele>168.8487549</ele>
        <time>2011-06-16T09:09:41Z</time>
      </trkpt>
      <trkpt lat="43.64447" lon="6.78895">
        <ele>167.4067383</ele>
        <time>2011-06-16T09:09:48Z</time>
      </trkpt>
      <trkpt lat="43.64436" lon="6.78908">
        <ele>166.4453125</ele>
        <time>2011-06-16T09:09:54Z</time>
      </trkpt>
      <trkpt lat="43.64432" lon="6.78911">
        <ele>166.4453125</ele>
        <time>2011-06-16T09:09:56Z</time>
      </trkpt>
      <trkpt lat="43.64427" lon="6.78913">
        <ele>165.9647217</ele>
        <time>2011-06-16T09:09:59Z</time>
      </trkpt>
      <trkpt lat="43.64424" lon="6.78914">
        <ele>165.4841309</ele>
        <time>2011-06-16T09:10:14Z</time>
      </trkpt>
      <trkpt lat="43.64424" lon="6.78914">
        <ele>166.4453125</ele>
        <time>2011-06-16T09:10:25Z</time>
      </trkpt>
      <trkpt lat="43.64424" lon="6.78914">
        <ele>165.003418</ele>
        <time>2011-06-16T09:11:00Z</time>
      </trkpt>
      <trkpt lat="43.64424" lon="6.78914">
        <ele>167.8873291</ele>
        <time>2011-06-16T09:11:07Z</time>
      </trkpt>
      <trkpt lat="43.64424" lon="6.78914">
        <ele>167.8873291</ele>
        <time>2011-06-16T09:11:10Z</time>
      </trkpt>
      <trkpt lat="43.64401" lon="6.7893">
        <ele>168.368042</ele>
        <time>2011-06-16T09:11:16Z</time>
      </trkpt>
      <trkpt lat="43.64396" lon="6.78933">
        <ele>167.8873291</ele>
        <time>2011-06-16T09:11:18Z</time>
      </trkpt>
      <trkpt lat="43.64382" lon="6.78938">
        <ele>165.9647217</ele>
        <time>2011-06-16T09:11:21Z</time>
      </trkpt>
      <trkpt lat="43.6437" lon="6.7894">
        <ele>166.9260254</ele>
        <time>2011-06-16T09:11:28Z</time>
      </trkpt>
      <trkpt lat="43.64357" lon="6.7894">
        <ele>167.4067383</ele>
        <time>2011-06-16T09:11:35Z</time>
      </trkpt>
      <trkpt lat="43.64338" lon="6.78953">
        <ele>167.4067383</ele>
        <time>2011-06-16T09:11:40Z</time>
      </trkpt>
      <trkpt lat="43.64336" lon="6.78966">
        <ele>165.4841309</ele>
        <time>2011-06-16T09:11:45Z</time>
      </trkpt>
      <trkpt lat="43.64336" lon="6.78975">
        <ele>167.8873291</ele>
        <time>2011-06-16T09:11:48Z</time>
      </trkpt>
      <trkpt lat="43.64337" lon="6.7898">
        <ele>168.8487549</ele>
        <time>2011-06-16T09:11:59Z</time>
      </trkpt>
      <trkpt lat="43.64337" lon="6.7898">
        <ele>169.3294678</ele>
        <time>2011-06-16T09:12:06Z</time>
      </trkpt>
      <trkpt lat="43.64338" lon="6.78987">
        <ele>169.8100586</ele>
        <time>2011-06-16T09:12:13Z</time>
      </trkpt>
      <trkpt lat="43.64338" lon="6.78987">
        <ele>169.8100586</ele>
        <time>2011-06-16T09:12:22Z</time>
      </trkpt>
      <trkpt lat="43.64338" lon="6.78987">
        <ele>169.8100586</ele>
        <time>2011-06-16T09:12:26Z</time>
      </trkpt>
      <trkpt lat="43.64338" lon="6.78987">
        <ele>169.8100586</ele>
        <time>2011-06-16T09:12:29Z</time>
      </trkpt>
      <trkpt lat="43.64305" lon="6.79007">
        <ele>172.2132568</ele>
        <time>2011-06-16T09:12:38Z</time>
      </trkpt>
      <trkpt lat="43.64304" lon="6.79007">
        <ele>173.6552734</ele>
        <time>2011-06-16T09:12:42Z</time>
      </trkpt>
      <trkpt lat="43.64304" lon="6.79007">
        <ele>175.09729</ele>
        <time>2011-06-16T09:12:58Z</time>
      </trkpt>
      <trkpt lat="43.64304" lon="6.79007">
        <ele>175.09729</ele>
        <time>2011-06-16T09:12:59Z</time>
      </trkpt>
      <trkpt lat="43.64304" lon="6.79007">
        <ele>175.5778809</ele>
        <time>2011-06-16T09:13:02Z</time>
      </trkpt>
      <trkpt lat="43.64304" lon="6.79007">
        <ele>176.0585938</ele>
        <time>2011-06-16T09:13:14Z</time>
      </trkpt>
      <trkpt lat="43.64304" lon="6.79007">
        <ele>178.942627</ele>
        <time>2011-06-16T09:13:27Z</time>
      </trkpt>
      <trkpt lat="43.64304" lon="6.79007">
        <ele>180.8652344</ele>
        <time>2011-06-16T09:13:37Z</time>
      </trkpt>
      <trkpt lat="43.64304" lon="6.79007">
        <ele>182.7878418</ele>
        <time>2011-06-16T09:13:50Z</time>
      </trkpt>
      <trkpt lat="43.64291" lon="6.79009">
        <ele>182.7878418</ele>
        <time>2011-06-16T09:13:58Z</time>
      </trkpt>
      <trkpt lat="43.64251" lon="6.79043">
        <ele>183.2684326</ele>
        <time>2011-06-16T09:14:16Z</time>
      </trkpt>
      <trkpt lat="43.64228" lon="6.79059">
        <ele>183.7490234</ele>
        <time>2011-06-16T09:14:25Z</time>
      </trkpt>
      <trkpt lat="43.64199" lon="6.79083">
        <ele>182.3071289</ele>
        <time>2011-06-16T09:14:33Z</time>
      </trkpt>
      <trkpt lat="43.6418" lon="6.79098">
        <ele>182.3071289</ele>
        <time>2011-06-16T09:14:39Z</time>
      </trkpt>
      <trkpt lat="43.64166" lon="6.79115">
        <ele>178.942627</ele>
        <time>2011-06-16T09:14:48Z</time>
      </trkpt>
      <trkpt lat="43.64163" lon="6.7912">
        <ele>178.4619141</ele>
        <time>2011-06-16T09:14:50Z</time>
      </trkpt>
      <trkpt lat="43.64161" lon="6.79123">
        <ele>177.5006104</ele>
        <time>2011-06-16T09:14:52Z</time>
      </trkpt>
      <trkpt lat="43.64159" lon="6.79126">
        <ele>176.5393066</ele>
        <time>2011-06-16T09:14:54Z</time>
      </trkpt>
      <trkpt lat="43.6415" lon="6.79137">
        <ele>173.6552734</ele>
        <time>2011-06-16T09:14:59Z</time>
      </trkpt>
      <trkpt lat="43.64148" lon="6.7914">
        <ele>172.6939697</ele>
        <time>2011-06-16T09:15:00Z</time>
      </trkpt>
      <trkpt lat="43.64139" lon="6.79154">
        <ele>172.2132568</ele>
        <time>2011-06-16T09:15:03Z</time>
      </trkpt>
      <trkpt lat="43.64113" lon="6.79192">
        <ele>170.7713623</ele>
        <time>2011-06-16T09:15:12Z</time>
      </trkpt>
      <trkpt lat="43.64111" lon="6.79196">
        <ele>170.7713623</ele>
        <time>2011-06-16T09:15:14Z</time>
      </trkpt>
      <trkpt lat="43.64067" lon="6.79231">
        <ele>168.8487549</ele>
        <time>2011-06-16T09:15:29Z</time>
      </trkpt>
      <trkpt lat="43.64053" lon="6.79238">
        <ele>166.4453125</ele>
        <time>2011-06-16T09:15:34Z</time>
      </trkpt>
      <trkpt lat="43.64046" lon="6.7925">
        <ele>165.9647217</ele>
        <time>2011-06-16T09:15:36Z</time>
      </trkpt>
      <trkpt lat="43.63996" lon="6.79292">
        <ele>163.5615234</ele>
        <time>2011-06-16T09:15:47Z</time>
      </trkpt>
      <trkpt lat="43.63983" lon="6.79301">
        <ele>164.0421143</ele>
        <time>2011-06-16T09:15:50Z</time>
      </trkpt>
      <trkpt lat="43.63931" lon="6.79327">
        <ele>164.0421143</ele>
        <time>2011-06-16T09:16:02Z</time>
      </trkpt>
      <trkpt lat="43.63879" lon="6.79344">
        <ele>166.4453125</ele>
        <time>2011-06-16T09:16:12Z</time>
      </trkpt>
      <trkpt lat="43.63837" lon="6.79358">
        <ele>167.8873291</ele>
        <time>2011-06-16T09:16:25Z</time>
      </trkpt>
      <trkpt lat="43.63812" lon="6.79364">
        <ele>167.8873291</ele>
        <time>2011-06-16T09:16:32Z</time>
      </trkpt>
      <trkpt lat="43.63798" lon="6.79368">
        <ele>168.368042</ele>
        <time>2011-06-16T09:16:36Z</time>
      </trkpt>
      <trkpt lat="43.63789" lon="6.79371">
        <ele>167.4067383</ele>
        <time>2011-06-16T09:16:38Z</time>
      </trkpt>
      <trkpt lat="43.63769" lon="6.79378">
        <ele>165.003418</ele>
        <time>2011-06-16T09:16:41Z</time>
      </trkpt>
      <trkpt lat="43.63753" lon="6.79383">
        <ele>164.5227051</ele>
        <time>2011-06-16T09:16:43Z</time>
      </trkpt>
      <trkpt lat="43.63736" lon="6.79383">
        <ele>163.0808105</ele>
        <time>2011-06-16T09:16:45Z</time>
      </trkpt>
      <trkpt lat="43.63725" lon="6.79381">
        <ele>160.1968994</ele>
        <time>2011-06-16T09:16:47Z</time>
      </trkpt>
      <trkpt lat="43.63721" lon="6.79381">
        <ele>160.1968994</ele>
        <time>2011-06-16T09:16:48Z</time>
      </trkpt>
      <trkpt lat="43.63708" lon="6.79377">
        <ele>161.638916</ele>
        <time>2011-06-16T09:16:50Z</time>
      </trkpt>
      <trkpt lat="43.63704" lon="6.79375">
        <ele>161.638916</ele>
        <time>2011-06-16T09:16:51Z</time>
      </trkpt>
      <trkpt lat="43.63672" lon="6.79373">
        <ele>161.1582031</ele>
        <time>2011-06-16T09:16:58Z</time>
      </trkpt>
      <trkpt lat="43.63628" lon="6.79367">
        <ele>161.1582031</ele>
        <time>2011-06-16T09:17:09Z</time>
      </trkpt>
      <trkpt lat="43.6357" lon="6.79317">
        <ele>161.1582031</ele>
        <time>2011-06-16T09:17:20Z</time>
      </trkpt>
      <trkpt lat="43.63544" lon="6.79295">
        <ele>162.1195068</ele>
        <time>2011-06-16T09:17:25Z</time>
      </trkpt>
      <trkpt lat="43.63534" lon="6.79286">
        <ele>161.638916</ele>
        <time>2011-06-16T09:17:28Z</time>
      </trkpt>
      <trkpt lat="43.63519" lon="6.79274">
        <ele>161.638916</ele>
        <time>2011-06-16T09:17:31Z</time>
      </trkpt>
      <trkpt lat="43.63504" lon="6.79262">
        <ele>162.1195068</ele>
        <time>2011-06-16T09:17:34Z</time>
      </trkpt>
      <trkpt lat="43.63485" lon="6.79248">
        <ele>163.0808105</ele>
        <time>2011-06-16T09:17:41Z</time>
      </trkpt>
      <trkpt lat="43.63485" lon="6.79248">
        <ele>162.1195068</ele>
        <time>2011-06-16T09:17:59Z</time>
      </trkpt>
      <trkpt lat="43.63485" lon="6.79248">
        <ele>162.1195068</ele>
        <time>2011-06-16T09:18:40Z</time>
      </trkpt>
      <trkpt lat="43.63485" lon="6.79248">
        <ele>162.6000977</ele>
        <time>2011-06-16T09:18:46Z</time>
      </trkpt>
      <trkpt lat="43.63481" lon="6.79245">
        <ele>163.0808105</ele>
        <time>2011-06-16T09:18:53Z</time>
      </trkpt>
      <trkpt lat="43.63461" lon="6.79228">
        <ele>161.638916</ele>
        <time>2011-06-16T09:18:59Z</time>
      </trkpt>
      <trkpt lat="43.63432" lon="6.79198">
        <ele>161.638916</ele>
        <time>2011-06-16T09:19:06Z</time>
      </trkpt>
      <trkpt lat="43.63414" lon="6.79181">
        <ele>163.0808105</ele>
        <time>2011-06-16T09:19:11Z</time>
      </trkpt>
      <trkpt lat="43.634" lon="6.7918">
        <ele>163.0808105</ele>
        <time>2011-06-16T09:19:15Z</time>
      </trkpt>
      <trkpt lat="43.63374" lon="6.79187">
        <ele>163.0808105</ele>
        <time>2011-06-16T09:19:21Z</time>
      </trkpt>
      <trkpt lat="43.63357" lon="6.7919">
        <ele>162.6000977</ele>
        <time>2011-06-16T09:19:24Z</time>
      </trkpt>
      <trkpt lat="43.63342" lon="6.79188">
        <ele>164.5227051</ele>
        <time>2011-06-16T09:19:27Z</time>
      </trkpt>
      <trkpt lat="43.63319" lon="6.79179">
        <ele>164.0421143</ele>
        <time>2011-06-16T09:19:31Z</time>
      </trkpt>
      <trkpt lat="43.63317" lon="6.7918">
        <ele>165.003418</ele>
        <time>2011-06-16T09:19:35Z</time>
      </trkpt>
      <trkpt lat="43.63283" lon="6.79207">
        <ele>164.0421143</ele>
        <time>2011-06-16T09:19:47Z</time>
      </trkpt>
      <trkpt lat="43.63272" lon="6.79224">
        <ele>162.6000977</ele>
        <time>2011-06-16T09:19:52Z</time>
      </trkpt>
      <trkpt lat="43.63267" lon="6.79236">
        <ele>161.1582031</ele>
        <time>2011-06-16T09:19:54Z</time>
      </trkpt>
      <trkpt lat="43.63262" lon="6.79252">
        <ele>161.638916</ele>
        <time>2011-06-16T09:19:56Z</time>
      </trkpt>
      <trkpt lat="43.63261" lon="6.79282">
        <ele>160.6774902</ele>
        <time>2011-06-16T09:20:00Z</time>
      </trkpt>
      <trkpt lat="43.63279" lon="6.79335">
        <ele>163.0808105</ele>
        <time>2011-06-16T09:22:40Z</time>
      </trkpt>
      <trkpt lat="43.63282" lon="6.79343">
        <ele>162.1195068</ele>
        <time>2011-06-16T09:22:43Z</time>
      </trkpt>
      <trkpt lat="43.63282" lon="6.79349">
        <ele>161.1582031</ele>
        <time>2011-06-16T09:22:45Z</time>
      </trkpt>
      <trkpt lat="43.63279" lon="6.79359">
        <ele>160.6774902</ele>
        <time>2011-06-16T09:22:47Z</time>
      </trkpt>
      <trkpt lat="43.63272" lon="6.79382">
        <ele>160.6774902</ele>
        <time>2011-06-16T09:22:51Z</time>
      </trkpt>
      <trkpt lat="43.63257" lon="6.79454">
        <ele>157.3128662</ele>
        <time>2011-06-16T09:23:00Z</time>
      </trkpt>
      <trkpt lat="43.63252" lon="6.7947">
        <ele>158.2741699</ele>
        <time>2011-06-16T09:23:02Z</time>
      </trkpt>
      <trkpt lat="43.63233" lon="6.79505">
        <ele>157.3128662</ele>
        <time>2011-06-16T09:23:07Z</time>
      </trkpt>
      <trkpt lat="43.63168" lon="6.79591">
        <ele>157.3128662</ele>
        <time>2011-06-16T09:23:22Z</time>
      </trkpt>
      <trkpt lat="43.63127" lon="6.79594">
        <ele>156.8321533</ele>
        <time>2011-06-16T09:23:32Z</time>
      </trkpt>
      <trkpt lat="43.63113" lon="6.79585">
        <ele>157.3128662</ele>
        <time>2011-06-16T09:23:35Z</time>
      </trkpt>
      <trkpt lat="43.63094" lon="6.79577">
        <ele>157.3128662</ele>
        <time>2011-06-16T09:23:39Z</time>
      </trkpt>
      <trkpt lat="43.63061" lon="6.79586">
        <ele>156.8321533</ele>
        <time>2011-06-16T09:23:46Z</time>
      </trkpt>
      <trkpt lat="43.62982" lon="6.79649">
        <ele>156.8321533</ele>
        <time>2011-06-16T09:24:04Z</time>
      </trkpt>
      <trkpt lat="43.62942" lon="6.79695">
        <ele>156.3515625</ele>
        <time>2011-06-16T09:24:13Z</time>
      </trkpt>
      <trkpt lat="43.62894" lon="6.79738">
        <ele>157.7935791</ele>
        <time>2011-06-16T09:24:23Z</time>
      </trkpt>
      <trkpt lat="43.62815" lon="6.79767">
        <ele>156.3515625</ele>
        <time>2011-06-16T09:24:38Z</time>
      </trkpt>
      <trkpt lat="43.62805" lon="6.79772">
        <ele>156.8321533</ele>
        <time>2011-06-16T09:24:40Z</time>
      </trkpt>
      <trkpt lat="43.62784" lon="6.79797">
        <ele>156.3515625</ele>
        <time>2011-06-16T09:24:45Z</time>
      </trkpt>
      <trkpt lat="43.62774" lon="6.79833">
        <ele>156.8321533</ele>
        <time>2011-06-16T09:24:50Z</time>
      </trkpt>
      <trkpt lat="43.62737" lon="6.79867">
        <ele>156.8321533</ele>
        <time>2011-06-16T09:24:58Z</time>
      </trkpt>
      <trkpt lat="43.62726" lon="6.79868">
        <ele>157.3128662</ele>
        <time>2011-06-16T09:25:00Z</time>
      </trkpt>
      <trkpt lat="43.62702" lon="6.79889">
        <ele>156.3515625</ele>
        <time>2011-06-16T09:25:05Z</time>
      </trkpt>
      <trkpt lat="43.62698" lon="6.79904">
        <ele>156.8321533</ele>
        <time>2011-06-16T09:25:07Z</time>
      </trkpt>
      <trkpt lat="43.62692" lon="6.79925">
        <ele>156.3515625</ele>
        <time>2011-06-16T09:25:10Z</time>
      </trkpt>
      <trkpt lat="43.62673" lon="6.79968">
        <ele>156.3515625</ele>
        <time>2011-06-16T09:25:18Z</time>
      </trkpt>
      <trkpt lat="43.62648" lon="6.8">
        <ele>156.8321533</ele>
        <time>2011-06-16T09:25:24Z</time>
      </trkpt>
      <trkpt lat="43.62637" lon="6.80022">
        <ele>156.8321533</ele>
        <time>2011-06-16T09:25:29Z</time>
      </trkpt>
      <trkpt lat="43.6262" lon="6.8007">
        <ele>156.8321533</ele>
        <time>2011-06-16T09:25:43Z</time>
      </trkpt>
      <trkpt lat="43.62619" lon="6.80074">
        <ele>156.8321533</ele>
        <time>2011-06-16T09:25:44Z</time>
      </trkpt>
      <trkpt lat="43.62612" lon="6.80147">
        <ele>156.8321533</ele>
        <time>2011-06-16T09:26:01Z</time>
      </trkpt>
      <trkpt lat="43.626" lon="6.80186">
        <ele>155.8709717</ele>
        <time>2011-06-16T09:26:11Z</time>
      </trkpt>
      <trkpt lat="43.626" lon="6.80194">
        <ele>154.9095459</ele>
        <time>2011-06-16T09:26:14Z</time>
      </trkpt>
      <trkpt lat="43.62601" lon="6.80202">
        <ele>155.3902588</ele>
        <time>2011-06-16T09:26:28Z</time>
      </trkpt>
      <trkpt lat="43.62606" lon="6.80221">
        <ele>156.3515625</ele>
        <time>2011-06-16T09:26:37Z</time>
      </trkpt>
      <trkpt lat="43.62597" lon="6.80306">
        <ele>156.3515625</ele>
        <time>2011-06-16T09:26:57Z</time>
      </trkpt>
      <trkpt lat="43.62603" lon="6.8037">
        <ele>155.8709717</ele>
        <time>2011-06-16T09:27:12Z</time>
      </trkpt>
      <trkpt lat="43.6261" lon="6.80413">
        <ele>156.8321533</ele>
        <time>2011-06-16T09:27:22Z</time>
      </trkpt>
      <trkpt lat="43.62627" lon="6.80451">
        <ele>155.3902588</ele>
        <time>2011-06-16T09:27:34Z</time>
      </trkpt>
      <trkpt lat="43.62627" lon="6.80512">
        <ele>155.3902588</ele>
        <time>2011-06-16T09:27:45Z</time>
      </trkpt>
      <trkpt lat="43.62615" lon="6.80551">
        <ele>154.9095459</ele>
        <time>2011-06-16T09:27:52Z</time>
      </trkpt>
      <trkpt lat="43.62613" lon="6.80588">
        <ele>155.3902588</ele>
        <time>2011-06-16T09:27:58Z</time>
      </trkpt>
      <trkpt lat="43.62638" lon="6.80653">
        <ele>156.3515625</ele>
        <time>2011-06-16T09:28:11Z</time>
      </trkpt>
      <trkpt lat="43.62639" lon="6.80657">
        <ele>156.3515625</ele>
        <time>2011-06-16T09:28:12Z</time>
      </trkpt>
      <trkpt lat="43.62644" lon="6.80668">
        <ele>156.3515625</ele>
        <time>2011-06-16T09:28:15Z</time>
      </trkpt>
      <trkpt lat="43.62648" lon="6.80684">
        <ele>155.8709717</ele>
        <time>2011-06-16T09:28:19Z</time>
      </trkpt>
      <trkpt lat="43.62649" lon="6.80697">
        <ele>156.8321533</ele>
        <time>2011-06-16T09:28:23Z</time>
      </trkpt>
      <trkpt lat="43.62673" lon="6.80758">
        <ele>156.3515625</ele>
        <time>2011-06-16T09:28:38Z</time>
      </trkpt>
      <trkpt lat="43.62688" lon="6.80798">
        <ele>156.8321533</ele>
        <time>2011-06-16T09:28:51Z</time>
      </trkpt>
      <trkpt lat="43.62693" lon="6.80808">
        <ele>156.3515625</ele>
        <time>2011-06-16T09:28:55Z</time>
      </trkpt>
      <trkpt lat="43.62728" lon="6.80833">
        <ele>155.8709717</ele>
        <time>2011-06-16T09:29:12Z</time>
      </trkpt>
      <trkpt lat="43.62732" lon="6.80836">
        <ele>154.9095459</ele>
        <time>2011-06-16T09:29:14Z</time>
      </trkpt>
      <trkpt lat="43.62745" lon="6.80851">
        <ele>158.2741699</ele>
        <time>2011-06-16T09:29:24Z</time>
      </trkpt>
      <trkpt lat="43.62745" lon="6.80851">
        <ele>159.7161865</ele>
        <time>2011-06-16T09:29:38Z</time>
      </trkpt>
      <trkpt lat="43.62745" lon="6.80851">
        <ele>161.1582031</ele>
        <time>2011-06-16T09:29:59Z</time>
      </trkpt>
      <trkpt lat="43.62745" lon="6.80851">
        <ele>161.638916</ele>
        <time>2011-06-16T09:30:09Z</time>
      </trkpt>
      <trkpt lat="43.62767" lon="6.80888">
        <ele>161.1582031</ele>
        <time>2011-06-16T09:30:13Z</time>
      </trkpt>
      <trkpt lat="43.62765" lon="6.80914">
        <ele>162.6000977</ele>
        <time>2011-06-16T09:30:22Z</time>
      </trkpt>
      <trkpt lat="43.62765" lon="6.80927">
        <ele>163.5615234</ele>
        <time>2011-06-16T09:30:26Z</time>
      </trkpt>
      <trkpt lat="43.62771" lon="6.80972">
        <ele>165.003418</ele>
        <time>2011-06-16T09:30:39Z</time>
      </trkpt>
      <trkpt lat="43.62778" lon="6.80995">
        <ele>166.4453125</ele>
        <time>2011-06-16T09:30:46Z</time>
      </trkpt>
      <trkpt lat="43.62787" lon="6.81034">
        <ele>169.3294678</ele>
        <time>2011-06-16T09:31:01Z</time>
      </trkpt>
      <trkpt lat="43.62789" lon="6.81074">
        <ele>173.1746826</ele>
        <time>2011-06-16T09:31:12Z</time>
      </trkpt>
      <trkpt lat="43.62811" lon="6.81129">
        <ele>174.6165771</ele>
        <time>2011-06-16T09:31:31Z</time>
      </trkpt>
      <trkpt lat="43.62832" lon="6.81205">
        <ele>173.1746826</ele>
        <time>2011-06-16T09:31:51Z</time>
      </trkpt>
      <trkpt lat="43.62825" lon="6.81209">
        <ele>174.1358643</ele>
        <time>2011-06-16T09:31:55Z</time>
      </trkpt>
      <trkpt lat="43.62824" lon="6.81208">
        <ele>174.1358643</ele>
        <time>2011-06-16T09:31:56Z</time>
      </trkpt>
      <trkpt lat="43.62814" lon="6.81205">
        <ele>174.6165771</ele>
        <time>2011-06-16T09:32:01Z</time>
      </trkpt>
      <trkpt lat="43.62809" lon="6.81201">
        <ele>175.5778809</ele>
        <time>2011-06-16T09:32:04Z</time>
      </trkpt>
      <trkpt lat="43.62802" lon="6.81202">
        <ele>177.0200195</ele>
        <time>2011-06-16T09:32:09Z</time>
      </trkpt>
      <trkpt lat="43.62794" lon="6.81209">
        <ele>178.4619141</ele>
        <time>2011-06-16T09:32:23Z</time>
      </trkpt>
      <trkpt lat="43.62765" lon="6.81264">
        <ele>177.9812012</ele>
        <time>2011-06-16T09:32:37Z</time>
      </trkpt>
      <trkpt lat="43.62761" lon="6.81281">
        <ele>176.5393066</ele>
        <time>2011-06-16T09:32:41Z</time>
      </trkpt>
      <trkpt lat="43.62751" lon="6.81317">
        <ele>177.0200195</ele>
        <time>2011-06-16T09:32:51Z</time>
      </trkpt>
      <trkpt lat="43.6275" lon="6.81334">
        <ele>177.0200195</ele>
        <time>2011-06-16T09:32:55Z</time>
      </trkpt>
      <trkpt lat="43.62735" lon="6.81389">
        <ele>180.3845215</ele>
        <time>2011-06-16T09:33:09Z</time>
      </trkpt>
      <trkpt lat="43.62731" lon="6.81395">
        <ele>180.8652344</ele>
        <time>2011-06-16T09:33:12Z</time>
      </trkpt>
      <trkpt lat="43.62732" lon="6.81407">
        <ele>180.8652344</ele>
        <time>2011-06-16T09:33:16Z</time>
      </trkpt>
      <trkpt lat="43.62728" lon="6.81429">
        <ele>181.826416</ele>
        <time>2011-06-16T09:33:23Z</time>
      </trkpt>
      <trkpt lat="43.62728" lon="6.81445">
        <ele>182.3071289</ele>
        <time>2011-06-16T09:33:28Z</time>
      </trkpt>
      <trkpt lat="43.62724" lon="6.8146">
        <ele>182.7878418</ele>
        <time>2011-06-16T09:33:32Z</time>
      </trkpt>
      <trkpt lat="43.62723" lon="6.81468">
        <ele>183.7490234</ele>
        <time>2011-06-16T09:33:36Z</time>
      </trkpt>
      <trkpt lat="43.62714" lon="6.8148">
        <ele>182.3071289</ele>
        <time>2011-06-16T09:33:42Z</time>
      </trkpt>
      <trkpt lat="43.62713" lon="6.81481">
        <ele>181.3458252</ele>
        <time>2011-06-16T09:33:43Z</time>
      </trkpt>
      <trkpt lat="43.62706" lon="6.81487">
        <ele>178.942627</ele>
        <time>2011-06-16T09:33:46Z</time>
      </trkpt>
      <trkpt lat="43.62694" lon="6.81502">
        <ele>175.09729</ele>
        <time>2011-06-16T09:33:50Z</time>
      </trkpt>
      <trkpt lat="43.62691" lon="6.81507">
        <ele>175.09729</ele>
        <time>2011-06-16T09:33:51Z</time>
      </trkpt>
      <trkpt lat="43.62667" lon="6.81536">
        <ele>171.732666</ele>
        <time>2011-06-16T09:33:58Z</time>
      </trkpt>
      <trkpt lat="43.6266" lon="6.81551">
        <ele>170.2906494</ele>
        <time>2011-06-16T09:34:00Z</time>
      </trkpt>
      <trkpt lat="43.62651" lon="6.81586">
        <ele>169.3294678</ele>
        <time>2011-06-16T09:34:07Z</time>
      </trkpt>
      <trkpt lat="43.62643" lon="6.81617">
        <ele>167.4067383</ele>
        <time>2011-06-16T09:34:16Z</time>
      </trkpt>
      <trkpt lat="43.62641" lon="6.81622">
        <ele>165.9647217</ele>
        <time>2011-06-16T09:34:17Z</time>
      </trkpt>
      <trkpt lat="43.62634" lon="6.81642">
        <ele>162.6000977</ele>
        <time>2011-06-16T09:34:24Z</time>
      </trkpt>
      <trkpt lat="43.62632" lon="6.81646">
        <ele>162.6000977</ele>
        <time>2011-06-16T09:34:25Z</time>
      </trkpt>
      <trkpt lat="43.62625" lon="6.81662">
        <ele>159.2354736</ele>
        <time>2011-06-16T09:34:29Z</time>
      </trkpt>
      <trkpt lat="43.62622" lon="6.81669">
        <ele>156.8321533</ele>
        <time>2011-06-16T09:34:37Z</time>
      </trkpt>
      <trkpt lat="43.62622" lon="6.81669">
        <ele>155.8709717</ele>
        <time>2011-06-16T09:34:38Z</time>
      </trkpt>
      <trkpt lat="43.62623" lon="6.81689">
        <ele>152.9869385</ele>
        <time>2011-06-16T09:34:43Z</time>
      </trkpt>
      <trkpt lat="43.62633" lon="6.81687">
        <ele>152.0257568</ele>
        <time>2011-06-16T09:34:48Z</time>
      </trkpt>
      <trkpt lat="43.62636" lon="6.81693">
        <ele>149.6223145</ele>
        <time>2011-06-16T09:38:49Z</time>
      </trkpt>
      <trkpt lat="43.62645" lon="6.81707">
        <ele>143.3736572</ele>
        <time>2011-06-16T09:38:57Z</time>
      </trkpt>
      <trkpt lat="43.62647" lon="6.81707">
        <ele>143.3736572</ele>
        <time>2011-06-16T09:38:58Z</time>
      </trkpt>
      <trkpt lat="43.62648" lon="6.81708">
        <ele>142.8930664</ele>
        <time>2011-06-16T09:38:59Z</time>
      </trkpt>
      <trkpt lat="43.62651" lon="6.81706">
        <ele>142.4124756</ele>
        <time>2011-06-16T09:39:01Z</time>
      </trkpt>
      <trkpt lat="43.6266" lon="6.817">
        <ele>140.4898682</ele>
        <time>2011-06-16T09:39:06Z</time>
      </trkpt>
      <trkpt lat="43.62667" lon="6.81701">
        <ele>138.5672607</ele>
        <time>2011-06-16T09:39:10Z</time>
      </trkpt>
      <trkpt lat="43.62668" lon="6.81702">
        <ele>137.605835</ele>
        <time>2011-06-16T09:39:11Z</time>
      </trkpt>
      <trkpt lat="43.62671" lon="6.81706">
        <ele>136.1639404</ele>
        <time>2011-06-16T09:39:13Z</time>
      </trkpt>
      <trkpt lat="43.62674" lon="6.8171">
        <ele>134.7219238</ele>
        <time>2011-06-16T09:39:15Z</time>
      </trkpt>
      <trkpt lat="43.62677" lon="6.8172">
        <ele>132.7993164</ele>
        <time>2011-06-16T09:39:19Z</time>
      </trkpt>
      <trkpt lat="43.62677" lon="6.81731">
        <ele>130.876709</ele>
        <time>2011-06-16T09:39:23Z</time>
      </trkpt>
      <trkpt lat="43.62683" lon="6.81734">
        <ele>128.9541016</ele>
        <time>2011-06-16T09:39:27Z</time>
      </trkpt>
      <trkpt lat="43.62689" lon="6.81729">
        <ele>127.5119629</ele>
        <time>2011-06-16T09:39:29Z</time>
      </trkpt>
      <trkpt lat="43.62691" lon="6.81727">
        <ele>126.5506592</ele>
        <time>2011-06-16T09:39:30Z</time>
      </trkpt>
      <trkpt lat="43.62701" lon="6.81727">
        <ele>125.1087646</ele>
        <time>2011-06-16T09:39:34Z</time>
      </trkpt>
      <trkpt lat="43.62706" lon="6.81735">
        <ele>122.7054443</ele>
        <time>2011-06-16T09:39:39Z</time>
      </trkpt>
      <trkpt lat="43.62704" lon="6.81748">
        <ele>120.302124</ele>
        <time>2011-06-16T09:39:44Z</time>
      </trkpt>
      <trkpt lat="43.62703" lon="6.81756">
        <ele>117.8988037</ele>
        <time>2011-06-16T09:39:46Z</time>
      </trkpt>
      <trkpt lat="43.62701" lon="6.81763">
        <ele>117.8988037</ele>
        <time>2011-06-16T09:39:48Z</time>
      </trkpt>
      <trkpt lat="43.62698" lon="6.81767">
        <ele>116.4567871</ele>
        <time>2011-06-16T09:39:50Z</time>
      </trkpt>
      <trkpt lat="43.62693" lon="6.81776">
        <ele>114.0535889</ele>
        <time>2011-06-16T09:39:54Z</time>
      </trkpt>
      <trkpt lat="43.62688" lon="6.81779">
        <ele>113.572998</ele>
        <time>2011-06-16T09:39:56Z</time>
      </trkpt>
      <trkpt lat="43.62694" lon="6.81789">
        <ele>109.7276611</ele>
        <time>2011-06-16T09:40:04Z</time>
      </trkpt>
      <trkpt lat="43.62696" lon="6.81791">
        <ele>109.7276611</ele>
        <time>2011-06-16T09:40:05Z</time>
      </trkpt>
      <trkpt lat="43.62697" lon="6.81796">
        <ele>108.7662354</ele>
        <time>2011-06-16T09:40:07Z</time>
      </trkpt>
      <trkpt lat="43.62701" lon="6.81802">
        <ele>107.8050537</ele>
        <time>2011-06-16T09:40:10Z</time>
      </trkpt>
      <trkpt lat="43.62698" lon="6.81812">
        <ele>107.8050537</ele>
        <time>2011-06-16T09:40:14Z</time>
      </trkpt>
      <trkpt lat="43.62651" lon="6.81867">
        <ele>111.1695557</ele>
        <time>2011-06-16T09:40:35Z</time>
      </trkpt>
      <trkpt lat="43.62607" lon="6.81909">
        <ele>114.0535889</ele>
        <time>2011-06-16T09:40:54Z</time>
      </trkpt>
      <trkpt lat="43.62604" lon="6.81917">
        <ele>114.5341797</ele>
        <time>2011-06-16T09:40:56Z</time>
      </trkpt>
      <trkpt lat="43.62571" lon="6.81995">
        <ele>116.4567871</ele>
        <time>2011-06-16T09:41:15Z</time>
      </trkpt>
      <trkpt lat="43.62531" lon="6.82049">
        <ele>118.3793945</ele>
        <time>2011-06-16T09:41:34Z</time>
      </trkpt>
      <trkpt lat="43.625" lon="6.82069">
        <ele>120.7828369</ele>
        <time>2011-06-16T09:41:45Z</time>
      </trkpt>
      <trkpt lat="43.62471" lon="6.82118">
        <ele>122.7054443</ele>
        <time>2011-06-16T09:41:59Z</time>
      </trkpt>
      <trkpt lat="43.62442" lon="6.82185">
        <ele>124.1473389</ele>
        <time>2011-06-16T09:42:16Z</time>
      </trkpt>
      <trkpt lat="43.62423" lon="6.82204">
        <ele>125.5893555</ele>
        <time>2011-06-16T09:42:24Z</time>
      </trkpt>
      <trkpt lat="43.62384" lon="6.82209">
        <ele>127.0313721</ele>
        <time>2011-06-16T09:42:38Z</time>
      </trkpt>
      <trkpt lat="43.62327" lon="6.82267">
        <ele>129.9152832</ele>
        <time>2011-06-16T09:43:00Z</time>
      </trkpt>
      <trkpt lat="43.62277" lon="6.82297">
        <ele>131.8378906</ele>
        <time>2011-06-16T09:43:16Z</time>
      </trkpt>
      <trkpt lat="43.62225" lon="6.82345">
        <ele>135.2025146</ele>
        <time>2011-06-16T09:43:35Z</time>
      </trkpt>
      <trkpt lat="43.62174" lon="6.82387">
        <ele>137.605835</ele>
        <time>2011-06-16T09:43:52Z</time>
      </trkpt>
      <trkpt lat="43.62138" lon="6.82404">
        <ele>139.0478516</ele>
        <time>2011-06-16T09:44:10Z</time>
      </trkpt>
      <trkpt lat="43.62138" lon="6.82404">
        <ele>139.5284424</ele>
        <time>2011-06-16T09:44:52Z</time>
      </trkpt>
      <trkpt lat="43.62138" lon="6.82404">
        <ele>140.0091553</ele>
        <time>2011-06-16T09:45:02Z</time>
      </trkpt>
      <trkpt lat="43.62135" lon="6.82406">
        <ele>139.5284424</ele>
        <time>2011-06-16T09:45:04Z</time>
      </trkpt>
      <trkpt lat="43.62108" lon="6.82416">
        <ele>140.4898682</ele>
        <time>2011-06-16T09:45:13Z</time>
      </trkpt>
      <trkpt lat="43.62055" lon="6.8242">
        <ele>143.3736572</ele>
        <time>2011-06-16T09:45:29Z</time>
      </trkpt>
      <trkpt lat="43.61994" lon="6.82394">
        <ele>144.8157959</ele>
        <time>2011-06-16T09:45:47Z</time>
      </trkpt>
      <trkpt lat="43.61936" lon="6.82382">
        <ele>147.699707</ele>
        <time>2011-06-16T09:46:04Z</time>
      </trkpt>
      <trkpt lat="43.61864" lon="6.82349">
        <ele>150.5836182</ele>
        <time>2011-06-16T09:46:26Z</time>
      </trkpt>
      <trkpt lat="43.61801" lon="6.82298">
        <ele>153.9483643</ele>
        <time>2011-06-16T09:46:48Z</time>
      </trkpt>
      <trkpt lat="43.61751" lon="6.82247">
        <ele>156.3515625</ele>
        <time>2011-06-16T09:47:07Z</time>
      </trkpt>
      <trkpt lat="43.61691" lon="6.82231">
        <ele>159.7161865</ele>
        <time>2011-06-16T09:47:24Z</time>
      </trkpt>
      <trkpt lat="43.61624" lon="6.82166">
        <ele>161.1582031</ele>
        <time>2011-06-16T09:47:46Z</time>
      </trkpt>
      <trkpt lat="43.6154" lon="6.82129">
        <ele>164.0421143</ele>
        <time>2011-06-16T09:48:08Z</time>
      </trkpt>
      <trkpt lat="43.61478" lon="6.82107">
        <ele>161.638916</ele>
        <time>2011-06-16T09:48:21Z</time>
      </trkpt>
      <trkpt lat="43.61425" lon="6.8209">
        <ele>162.1195068</ele>
        <time>2011-06-16T09:48:30Z</time>
      </trkpt>
      <trkpt lat="43.61405" lon="6.82079">
        <ele>163.0808105</ele>
        <time>2011-06-16T09:48:34Z</time>
      </trkpt>
      <trkpt lat="43.61367" lon="6.82029">
        <ele>167.4067383</ele>
        <time>2011-06-16T09:48:46Z</time>
      </trkpt>
      <trkpt lat="43.61364" lon="6.82026">
        <ele>167.4067383</ele>
        <time>2011-06-16T09:48:47Z</time>
      </trkpt>
      <trkpt lat="43.61336" lon="6.81997">
        <ele>170.2906494</ele>
        <time>2011-06-16T09:48:59Z</time>
      </trkpt>
      <trkpt lat="43.61296" lon="6.81958">
        <ele>173.6552734</ele>
        <time>2011-06-16T09:49:16Z</time>
      </trkpt>
      <trkpt lat="43.61254" lon="6.81899">
        <ele>176.5393066</ele>
        <time>2011-06-16T09:49:36Z</time>
      </trkpt>
      <trkpt lat="43.61244" lon="6.81891">
        <ele>177.0200195</ele>
        <time>2011-06-16T09:49:42Z</time>
      </trkpt>
      <trkpt lat="43.61229" lon="6.81887">
        <ele>177.5006104</ele>
        <time>2011-06-16T09:49:49Z</time>
      </trkpt>
      <trkpt lat="43.61223" lon="6.81865">
        <ele>179.9335938</ele>
      </trkpt>
    </trkseg>
  </trk>
</gpx>